Heimo, Alain (2007): Radiosonde measurements from station Payerne (2001-06) [dataset]. Swiss Meteorological Agency, Payerne, PANGAEA, https://doi.org/10.1594/PANGAEA.675423
Always quote citation above when using data! You can download the citation in several formats below.
Published: 2007-12-27 • DOI registered: 2008-01-24
Other version:
Heimo, Alain (2001): BSRN Station-to-archive file for station Payerne (2001-06) [dataset]. ftp://ftp.bsrn.awi.de/pay/pay0601.dat.gz
Project(s):
Coverage:
Latitude: 46.812300 * Longitude: 6.942200
Date/Time Start: 2001-06-01T00:00:00 * Date/Time End: 2001-06-30T12:00:00
Minimum ALTITUDE: 491 m * Maximum ALTITUDE: 36612 m
Event(s):
PAY (Payerne) * Latitude: 46.812300 * Longitude: 6.942200 * Date/Time: 1992-09-01T00:00:00 * Elevation: 491.0 m * Location: Switzerland * Method/Device: Monitoring station (MONS) * Comment: BSRN station no: 21; Surface type: cultivated; Topography type: hilly, rural; Horizon: doi:10.1594/PANGAEA.947035; Station scientist: Laurent Vuilleumier (laurent.vuilleumier@meteoswiss.ch)
Parameter(s):
| # | Name | Short Name | Unit | Principal Investigator | Method/Device | Comment |
|---|---|---|---|---|---|---|
| 1 | DATE/TIME | Date/Time | Geocode | |||
| 2 | ALTITUDE | Altitude | m | Geocode | ||
| 3 | Pressure, at given altitude | PPPP | hPa | Heimo, Alain | Radiosonde, METEOLABOR AG, SRSCH | |
| 4 | Temperature, air | TTT | °C | Heimo, Alain | Radiosonde, METEOLABOR AG, SRSCH | |
| 5 | Dew/frost point | TdTdTd | °C | Heimo, Alain | Radiosonde, METEOLABOR AG, SRSCH | |
| 6 | Wind direction | dd | deg | Heimo, Alain | Radiosonde, METEOLABOR AG, SRSCH | |
| 7 | Wind speed | ff | m/s | Heimo, Alain | Radiosonde, METEOLABOR AG, SRSCH | |
| 8 | Ozone, partial pressure | pO3 | mPa | Heimo, Alain | Radiosonde, METEOLABOR AG, SRSCH |
License:
Size:
319200 data points
Data
| 1 Date/Time | 2 Altitude [m] | 3 PPPP [hPa] | 4 TTT [°C] | 5 TdTdTd [°C] | 6 dd [deg] | 7 ff [m/s] | 8 pO3 [mPa] |
|---|---|---|---|---|---|---|---|
| 2001-06-01T00:00 | 491 | 962 | 12.3 | 7.6 | 176 | 1 | |
| 2001-06-01T00:00 | 523 | 959 | 14.6 | 8.5 | |||
| 2001-06-01T00:00 | 545 | 956 | 14.5 | 7.5 | |||
| 2001-06-01T00:00 | 555 | 955 | 14.5 | 7.0 | |||
| 2001-06-01T00:00 | 598 | 950 | 14.3 | 6.2 | |||
| 2001-06-01T00:00 | 608 | 949 | 14.6 | 6.4 | |||
| 2001-06-01T00:00 | 614 | 949 | 14.6 | 6.4 | |||
| 2001-06-01T00:00 | 634 | 946 | 14.6 | 6.3 | |||
| 2001-06-01T00:00 | 645 | 945 | 14.7 | 6.3 | 4 | 3 | |
| 2001-06-01T00:00 | 650 | 945 | 14.7 | 6.3 | |||
| 2001-06-01T00:00 | 674 | 942 | 14.6 | 6.1 | |||
| 2001-06-01T00:00 | 683 | 941 | 14.5 | 6.0 | |||
| 2001-06-01T00:00 | 687 | 940 | 14.4 | 5.9 | |||
| 2001-06-01T00:00 | 692 | 940 | 14.4 | 5.9 | 360 | 3 | |
| 2001-06-01T00:00 | 705 | 938 | 14.2 | 5.7 | |||
| 2001-06-01T00:00 | 714 | 937 | 14.1 | 5.6 | |||
| 2001-06-01T00:00 | 719 | 937 | 14.1 | 5.6 | |||
| 2001-06-01T00:00 | 740 | 935 | 13.9 | 5.4 | 356 | 3 | |
| 2001-06-01T00:00 | 746 | 934 | 13.9 | 5.4 | |||
| 2001-06-01T00:00 | 758 | 933 | 13.8 | 5.3 | |||
| 2001-06-01T00:00 | 764 | 932 | 13.7 | 5.3 | |||
| 2001-06-01T00:00 | 787 | 929 | 13.5 | 5.1 | |||
| 2001-06-01T00:00 | 798 | 928 | 13.4 | 5.0 | 355 | 3 | |
| 2001-06-01T00:00 | 803 | 928 | 13.4 | 5.0 | |||
| 2001-06-01T00:00 | 826 | 925 | 13.1 | 4.8 | |||
| 2001-06-01T00:00 | 827 | 925 | 13.1 | 4.8 | |||
| 2001-06-01T00:00 | 835 | 924 | 13.0 | 4.8 | |||
| 2001-06-01T00:00 | 839 | 924 | 12.9 | 4.7 | |||
| 2001-06-01T00:00 | 844 | 923 | 12.9 | 4.7 | 353 | 3 | |
| 2001-06-01T00:00 | 858 | 922 | 12.8 | 4.6 | |||
| 2001-06-01T00:00 | 868 | 920 | 12.6 | 4.5 | |||
| 2001-06-01T00:00 | 873 | 920 | 12.6 | 4.5 | |||
| 2001-06-01T00:00 | 895 | 918 | 12.4 | 4.4 | 352 | 3 | |
| 2001-06-01T00:00 | 900 | 917 | 12.4 | 4.4 | |||
| 2001-06-01T00:00 | 911 | 916 | 12.3 | 4.3 | |||
| 2001-06-01T00:00 | 917 | 915 | 12.2 | 4.3 | |||
| 2001-06-01T00:00 | 937 | 913 | 12.0 | 4.1 | |||
| 2001-06-01T00:00 | 946 | 912 | 11.9 | 4.0 | 350 | 3 | |
| 2001-06-01T00:00 | 951 | 911 | 11.9 | 4.1 | |||
| 2001-06-01T00:00 | 975 | 909 | 11.7 | 4.0 | |||
| 2001-06-01T00:00 | 985 | 908 | 11.6 | 3.9 | |||
| 2001-06-01T00:00 | 991 | 907 | 11.5 | 3.9 | |||
| 2001-06-01T00:00 | 996 | 906 | 11.5 | 3.9 | 349 | 4 | |
| 2001-06-01T00:00 | 1018 | 904 | 11.3 | 3.9 | |||
| 2001-06-01T00:00 | 1030 | 903 | 11.1 | 3.8 | |||
| 2001-06-01T00:00 | 1036 | 902 | 11.1 | 3.8 | |||
| 2001-06-01T00:00 | 1053 | 900 | 11.0 | 3.8 | 348 | 4 | |
| 2001-06-01T00:00 | 1056 | 900 | 10.9 | 3.8 | |||
| 2001-06-01T00:00 | 1059 | 900 | 10.9 | 3.8 | |||
| 2001-06-01T00:00 | 1069 | 899 | 10.8 | 3.7 | |||
| 2001-06-01T00:00 | 1074 | 898 | 10.7 | 3.7 | |||
| 2001-06-01T00:00 | 1101 | 895 | 10.5 | 3.6 | |||
| 2001-06-01T00:00 | 1107 | 895 | 10.4 | 3.6 | 347 | 4 | |
| 2001-06-01T00:00 | 1113 | 894 | 10.4 | 3.6 | |||
| 2001-06-01T00:00 | 1118 | 893 | 10.3 | 3.5 | |||
| 2001-06-01T00:00 | 1142 | 891 | 10.1 | 3.5 | |||
| 2001-06-01T00:00 | 1154 | 890 | 10.0 | 3.4 | |||
| 2001-06-01T00:00 | 1160 | 889 | 10.0 | 3.4 | |||
| 2001-06-01T00:00 | 1166 | 888 | 9.9 | 3.3 | 346 | 4 | |
| 2001-06-01T00:00 | 1190 | 886 | 9.7 | 3.3 | |||
| 2001-06-01T00:00 | 1202 | 884 | 9.6 | 3.3 | |||
| 2001-06-01T00:00 | 1208 | 884 | 9.6 | 3.3 | |||
| 2001-06-01T00:00 | 1223 | 882 | 9.4 | 3.3 | 344 | 4 | |
| 2001-06-01T00:00 | 1228 | 882 | 9.4 | 3.2 | |||
| 2001-06-01T00:00 | 1237 | 881 | 9.2 | 3.2 | |||
| 2001-06-01T00:00 | 1241 | 880 | 9.2 | 3.2 | |||
| 2001-06-01T00:00 | 1265 | 878 | 9.1 | 3.2 | |||
| 2001-06-01T00:00 | 1270 | 877 | 9.1 | 3.1 | 341 | 4 | |
| 2001-06-01T00:00 | 1276 | 877 | 9.0 | 3.1 | |||
| 2001-06-01T00:00 | 1281 | 876 | 9.0 | 3.1 | |||
| 2001-06-01T00:00 | 1300 | 874 | 8.8 | 3.0 | |||
| 2001-06-01T00:00 | 1307 | 873 | 8.6 | 2.9 | |||
| 2001-06-01T00:00 | 1311 | 873 | 8.6 | 2.9 | |||
| 2001-06-01T00:00 | 1316 | 872 | 8.6 | 2.9 | 337 | 4 | |
| 2001-06-01T00:00 | 1333 | 870 | 8.4 | 2.8 | |||
| 2001-06-01T00:00 | 1344 | 869 | 8.3 | 2.8 | |||
| 2001-06-01T00:00 | 1350 | 869 | 8.3 | 2.8 | |||
| 2001-06-01T00:00 | 1366 | 867 | 8.2 | 2.8 | 333 | 4 | |
| 2001-06-01T00:00 | 1376 | 866 | 8.1 | 2.8 | |||
| 2001-06-01T00:00 | 1386 | 865 | 8.0 | 2.6 | |||
| 2001-06-01T00:00 | 1391 | 864 | 8.1 | 2.7 | |||
| 2001-06-01T00:00 | 1412 | 862 | 7.8 | 2.6 | |||
| 2001-06-01T00:00 | 1417 | 862 | 7.8 | 2.5 | 327 | 3 | |
| 2001-06-01T00:00 | 1422 | 861 | 7.7 | 2.5 | |||
| 2001-06-01T00:00 | 1427 | 861 | 7.7 | 2.5 | |||
| 2001-06-01T00:00 | 1453 | 858 | 7.4 | 2.3 | |||
| 2001-06-01T00:00 | 1463 | 857 | 7.3 | 2.2 | |||
| 2001-06-01T00:00 | 1468 | 856 | 7.3 | 2.3 | 320 | 3 | |
| 2001-06-01T00:00 | 1487 | 854 | 7.1 | 2.2 | |||
| 2001-06-01T00:00 | 1497 | 853 | 7.0 | 2.2 | |||
| 2001-06-01T00:00 | 1501 | 853 | 7.0 | 2.2 | |||
| 2001-06-01T00:00 | 1517 | 851 | 6.8 | 2.2 | 314 | 3 | |
| 2001-06-01T00:00 | 1528 | 850 | 6.7 | 2.1 | |||
| 2001-06-01T00:00 | 1529 | 850 | 6.7 | 2.1 | |||
| 2001-06-01T00:00 | 1541 | 849 | 6.6 | 2.1 | |||
| 2001-06-01T00:00 | 1547 | 848 | 6.5 | 2.1 | |||
| 2001-06-01T00:00 | 1569 | 846 | 6.3 | 2.0 | |||
| 2001-06-01T00:00 | 1574 | 845 | 6.3 | 2.0 | 309 | 3 | |
| 2001-06-01T00:00 | 1579 | 845 | 6.2 | 1.9 | |||
| 2001-06-01T00:00 | 1584 | 844 | 6.2 | 1.9 | |||
| 2001-06-01T00:00 | 1609 | 842 | 6.0 | 1.9 | |||
| 2001-06-01T00:00 | 1620 | 841 | 5.9 | 1.8 | |||
| 2001-06-01T00:00 | 1625 | 840 | 5.9 | 1.8 | 305 | 3 | |
| 2001-06-01T00:00 | 1647 | 838 | 5.7 | 1.7 | |||
| 2001-06-01T00:00 | 1666 | 836 | 5.6 | 1.6 | |||
| 2001-06-01T00:00 | 1672 | 835 | 5.6 | 1.6 | |||
| 2001-06-01T00:00 | 1683 | 834 | 5.4 | 1.5 | 304 | 3 | |
| 2001-06-01T00:00 | 1693 | 833 | 5.3 | 1.5 | |||
| 2001-06-01T00:00 | 1701 | 832 | 5.2 | 1.4 | |||
| 2001-06-01T00:00 | 1705 | 832 | 5.2 | 1.4 | |||
| 2001-06-01T00:00 | 1728 | 830 | 5.0 | 1.3 | 303 | 3 | |
| 2001-06-01T00:00 | 1739 | 828 | 4.8 | 1.2 | |||
| 2001-06-01T00:00 | 1745 | 828 | 4.9 | 1.3 | |||
| 2001-06-01T00:00 | 1764 | 826 | 5.0 | 1.0 | |||
| 2001-06-01T00:00 | 1772 | 825 | 5.0 | 0.7 | |||
| 2001-06-01T00:00 | 1776 | 825 | 5.0 | 0.6 | 303 | 3 | |
| 2001-06-01T00:00 | 1798 | 823 | 4.8 | 0.1 | |||
| 2001-06-01T00:00 | 1808 | 822 | 4.8 | 0.0 | |||
| 2001-06-01T00:00 | 1812 | 821 | 4.7 | 0.0 | |||
| 2001-06-01T00:00 | 1823 | 820 | 4.6 | -0.1 | 300 | 4 | |
| 2001-06-01T00:00 | 1833 | 819 | 4.5 | -0.2 | |||
| 2001-06-01T00:00 | 1844 | 818 | 4.4 | -0.4 | |||
| 2001-06-01T00:00 | 1849 | 817 | 4.4 | -0.4 | |||
| 2001-06-01T00:00 | 1874 | 815 | 4.2 | -0.6 | 297 | 4 | |
| 2001-06-01T00:00 | 1882 | 814 | 4.1 | -0.7 | |||
| 2001-06-01T00:00 | 1886 | 814 | 4.0 | -0.8 | |||
| 2001-06-01T00:00 | 1907 | 812 | 4.0 | -0.8 | |||
| 2001-06-01T00:00 | 1916 | 811 | 3.9 | -0.9 | 293 | 4 | |
| 2001-06-01T00:00 | 1920 | 810 | 3.8 | -0.9 | |||
| 2001-06-01T00:00 | 1938 | 808 | 3.7 | -1.1 | |||
| 2001-06-01T00:00 | 1948 | 807 | 3.6 | -1.2 | |||
| 2001-06-01T00:00 | 1953 | 807 | 3.5 | -1.2 | |||
| 2001-06-01T00:00 | 1964 | 806 | 3.5 | -1.3 | 289 | 3 | |
| 2001-06-01T00:00 | 1981 | 804 | 3.4 | -1.4 | |||
| 2001-06-01T00:00 | 1993 | 803 | 3.3 | -1.5 | |||
| 2001-06-01T00:00 | 1999 | 802 | 3.3 | -1.5 | |||
| 2001-06-01T00:00 | 2020 | 800 | 3.1 | -1.7 | 286 | 4 | |
| 2001-06-01T00:00 | 2024 | 800 | 3.0 | -1.7 | |||
| 2001-06-01T00:00 | 2033 | 799 | 3.0 | -1.8 | |||
| 2001-06-01T00:00 | 2038 | 799 | 2.9 | -1.8 | |||
| 2001-06-01T00:00 | 2059 | 797 | 2.8 | -2.0 | |||
| 2001-06-01T00:00 | 2071 | 795 | 2.7 | -2.0 | 278 | 3 | |
| 2001-06-01T00:00 | 2078 | 795 | 2.6 | -2.1 | |||
| 2001-06-01T00:00 | 2107 | 792 | 2.4 | -2.3 | |||
| 2001-06-01T00:00 | 2118 | 791 | 2.3 | -2.4 | |||
| 2001-06-01T00:00 | 2123 | 790 | 2.3 | -2.4 | |||
| 2001-06-01T00:00 | 2128 | 790 | 2.2 | -2.5 | 273 | 3 | |
| 2001-06-01T00:00 | 2144 | 788 | 2.1 | -2.6 | |||
| 2001-06-01T00:00 | 2154 | 787 | 2.0 | -2.6 | |||
| 2001-06-01T00:00 | 2160 | 787 | 1.9 | -2.7 | |||
| 2001-06-01T00:00 | 2179 | 785 | 1.8 | -2.7 | 266 | 3 | |
| 2001-06-01T00:00 | 2183 | 784 | 1.8 | -2.7 | |||
| 2001-06-01T00:00 | 2192 | 784 | 1.6 | -2.8 | |||
| 2001-06-01T00:00 | 2196 | 783 | 1.6 | -2.8 | |||
| 2001-06-01T00:00 | 2218 | 781 | 1.4 | -2.9 | |||
| 2001-06-01T00:00 | 2223 | 781 | 1.4 | -2.9 | 258 | 3 | |
| 2001-06-01T00:00 | 2227 | 780 | 1.3 | -2.9 | |||
| 2001-06-01T00:00 | 2232 | 780 | 1.3 | -2.9 | |||
| 2001-06-01T00:00 | 2250 | 778 | 1.1 | -2.9 | |||
| 2001-06-01T00:00 | 2259 | 777 | 1.0 | -2.9 | |||
| 2001-06-01T00:00 | 2263 | 777 | 1.0 | -2.8 | |||
| 2001-06-01T00:00 | 2266 | 776 | 0.9 | -2.8 | 244 | 2 | |
| 2001-06-01T00:00 | 2281 | 775 | 0.9 | -2.7 | |||
| 2001-06-01T00:00 | 2288 | 774 | 0.7 | -2.7 | |||
| 2001-06-01T00:00 | 2291 | 774 | 0.7 | -2.6 | |||
| 2001-06-01T00:00 | 2302 | 773 | 0.6 | -2.6 | 233 | 2 | |
| 2001-06-01T00:00 | 2310 | 772 | 0.6 | -2.6 | |||
| 2001-06-01T00:00 | 2320 | 771 | 0.5 | -2.6 | |||
| 2001-06-01T00:00 | 2325 | 771 | 0.5 | -2.6 | |||
| 2001-06-01T00:00 | 2342 | 769 | 0.3 | -2.7 | |||
| 2001-06-01T00:00 | 2346 | 769 | 0.3 | -2.7 | 228 | 2 | |
| 2001-06-01T00:00 | 2350 | 768 | 0.2 | -2.8 | |||
| 2001-06-01T00:00 | 2354 | 768 | 0.2 | -2.8 | |||
| 2001-06-01T00:00 | 2372 | 766 | 0.1 | -2.9 | |||
| 2001-06-01T00:00 | 2378 | 766 | 0.0 | -3.0 | |||
| 2001-06-01T00:00 | 2381 | 765 | 0.0 | -3.0 | 226 | 3 | |
| 2001-06-01T00:00 | 2401 | 763 | -0.1 | -3.2 | |||
| 2001-06-01T00:00 | 2410 | 763 | -0.2 | -3.3 | |||
| 2001-06-01T00:00 | 2415 | 762 | -0.2 | -3.3 | |||
| 2001-06-01T00:00 | 2424 | 761 | -0.3 | -3.5 | 226 | 3 | |
| 2001-06-01T00:00 | 2433 | 760 | -0.4 | -3.6 | |||
| 2001-06-01T00:00 | 2441 | 760 | -0.5 | -3.8 | |||
| 2001-06-01T00:00 | 2445 | 759 | -0.4 | -3.8 | |||
| 2001-06-01T00:00 | 2471 | 757 | -0.1 | -4.4 | 228 | 4 | |
| 2001-06-01T00:00 | 2485 | 755 | -0.1 | -4.7 | |||
| 2001-06-01T00:00 | 2491 | 755 | 0.0 | -4.9 | |||
| 2001-06-01T00:00 | 2513 | 753 | 0.3 | -5.5 | |||
| 2001-06-01T00:00 | 2525 | 752 | 0.2 | -6.2 | 232 | 4 | |
| 2001-06-01T00:00 | 2529 | 751 | 0.2 | -6.5 | |||
| 2001-06-01T00:00 | 2550 | 749 | 0.1 | -7.7 | |||
| 2001-06-01T00:00 | 2562 | 748 | -0.1 | -8.3 | |||
| 2001-06-01T00:00 | 2568 | 748 | -0.2 | -8.7 | |||
| 2001-06-01T00:00 | 2579 | 747 | -0.1 | -9.0 | 234 | 5 | |
| 2001-06-01T00:00 | 2596 | 745 | 0.0 | -9.5 | |||
| 2001-06-01T00:00 | 2604 | 744 | 0.0 | -9.9 | |||
| 2001-06-01T00:00 | 2608 | 744 | 0.0 | -10.1 | |||
| 2001-06-01T00:00 | 2627 | 742 | -0.2 | -11.0 | 236 | 6 | |
| 2001-06-01T00:00 | 2632 | 742 | -0.2 | -11.3 | |||
| 2001-06-01T00:00 | 2643 | 741 | -0.3 | -11.8 | |||
| 2001-06-01T00:00 | 2648 | 740 | -0.4 | -12.1 | |||
| 2001-06-01T00:00 | 2675 | 738 | -0.7 | -12.6 | |||
| 2001-06-01T00:00 | 2681 | 737 | -0.8 | -12.6 | 238 | 6 | |
| 2001-06-01T00:00 | 2686 | 737 | -0.8 | -12.7 | |||
| 2001-06-01T00:00 | 2692 | 736 | -0.9 | -12.7 | |||
| 2001-06-01T00:00 | 2719 | 734 | -1.2 | -12.9 | |||
| 2001-06-01T00:00 | 2731 | 733 | -1.3 | -12.9 | |||
| 2001-06-01T00:00 | 2737 | 732 | -1.3 | -12.9 | 241 | 6 | |
| 2001-06-01T00:00 | 2762 | 730 | -1.6 | -13.0 | |||
| 2001-06-01T00:00 | 2770 | 729 | -1.8 | -13.0 | |||
| 2001-06-01T00:00 | 2774 | 729 | -1.8 | -13.0 | |||
| 2001-06-01T00:00 | 2784 | 728 | -1.9 | -13.0 | 244 | 6 | |
| 2001-06-01T00:00 | 2798 | 726 | -2.0 | -13.1 | |||
| 2001-06-01T00:00 | 2809 | 725 | -2.2 | -13.2 | |||
| 2001-06-01T00:00 | 2814 | 725 | -2.2 | -13.2 | |||
| 2001-06-01T00:00 | 2835 | 723 | -1.9 | -13.8 | 248 | 6 | |
| 2001-06-01T00:00 | 2841 | 723 | -1.8 | -13.9 | |||
| 2001-06-01T00:00 | 2850 | 722 | -1.9 | -14.6 | |||
| 2001-06-01T00:00 | 2855 | 721 | -1.9 | -14.9 | |||
| 2001-06-01T00:00 | 2878 | 719 | -2.0 | -16.4 | |||
| 2001-06-01T00:00 | 2882 | 719 | -2.0 | -16.7 | 250 | 6 | |
| 2001-06-01T00:00 | 2887 | 718 | -2.1 | -17.0 | |||
| 2001-06-01T00:00 | 2891 | 718 | -2.1 | -17.3 | |||
| 2001-06-01T00:00 | 2914 | 716 | -2.3 | -18.1 | |||
| 2001-06-01T00:00 | 2923 | 715 | -2.4 | -18.4 | |||
| 2001-06-01T00:00 | 2927 | 715 | -2.4 | -18.5 | 252 | 6 | |
| 2001-06-01T00:00 | 2953 | 712 | -2.6 | -18.7 | |||
| 2001-06-01T00:00 | 2965 | 711 | -2.8 | -18.8 | |||
| 2001-06-01T00:00 | 2971 | 711 | -2.8 | -18.8 | |||
| 2001-06-01T00:00 | 2982 | 710 | -2.9 | -19.1 | 255 | 6 | |
| 2001-06-01T00:00 | 2998 | 708 | -3.0 | -19.6 | |||
| 2001-06-01T00:00 | 3006 | 708 | -3.1 | -20.1 | |||
| 2001-06-01T00:00 | 3010 | 707 | -3.1 | -20.2 | |||
| 2001-06-01T00:00 | 3029 | 706 | -3.2 | -20.9 | 258 | 6 | |
| 2001-06-01T00:00 | 3034 | 705 | -3.3 | -21.0 | |||
| 2001-06-01T00:00 | 3045 | 704 | -3.4 | -21.3 | |||
| 2001-06-01T00:00 | 3051 | 704 | -3.4 | -21.5 | |||
| 2001-06-01T00:00 | 3076 | 701 | -3.6 | -22.1 | |||
| 2001-06-01T00:00 | 3081 | 701 | -3.6 | -22.2 | 260 | 6 | |
| 2001-06-01T00:00 | 3085 | 701 | -3.7 | -22.3 | |||
| 2001-06-01T00:00 | 3089 | 700 | -3.7 | -22.5 | |||
| 2001-06-01T00:00 | 3092 | 700 | -3.7 | -22.6 | |||
| 2001-06-01T00:00 | 3110 | 698 | -3.7 | -23.5 | |||
| 2001-06-01T00:00 | 3117 | 698 | -3.8 | -24.0 | |||
| 2001-06-01T00:00 | 3121 | 697 | -3.8 | -24.2 | 264 | 7 | |
| 2001-06-01T00:00 | 3143 | 695 | -4.0 | -24.9 | |||
| 2001-06-01T00:00 | 3154 | 695 | -4.1 | -25.2 | |||
| 2001-06-01T00:00 | 3159 | 694 | -4.1 | -25.3 | |||
| 2001-06-01T00:00 | 3170 | 693 | -4.2 | -25.4 | 268 | 7 | |
| 2001-06-01T00:00 | 3186 | 692 | -4.4 | -25.6 | |||
| 2001-06-01T00:00 | 3197 | 691 | -4.5 | -25.7 | |||
| 2001-06-01T00:00 | 3203 | 690 | -4.5 | -25.8 | |||
| 2001-06-01T00:00 | 3223 | 688 | -4.7 | -26.0 | 272 | 7 | |
| 2001-06-01T00:00 | 3228 | 688 | -4.7 | -26.0 | |||
| 2001-06-01T00:00 | 3238 | 687 | -4.8 | -26.2 | |||
| 2001-06-01T00:00 | 3243 | 687 | -4.8 | -26.2 | |||
| 2001-06-01T00:00 | 3269 | 684 | -5.0 | -26.9 | |||
| 2001-06-01T00:00 | 3281 | 683 | -4.9 | -27.1 | |||
| 2001-06-01T00:00 | 3287 | 683 | -5.0 | -27.2 | |||
| 2001-06-01T00:00 | 3317 | 680 | -5.1 | -27.7 | |||
| 2001-06-01T00:00 | 3329 | 679 | -5.0 | -27.7 | |||
| 2001-06-01T00:00 | 3335 | 679 | -5.0 | -27.8 | |||
| 2001-06-01T00:00 | 3364 | 676 | -5.2 | -27.9 | |||
| 2001-06-01T00:00 | 3374 | 675 | -5.3 | -28.0 | |||
| 2001-06-01T00:00 | 3379 | 675 | -5.3 | -28.0 | |||
| 2001-06-01T00:00 | 3405 | 673 | -5.4 | -28.0 | |||
| 2001-06-01T00:00 | 3416 | 672 | -5.6 | -28.1 | |||
| 2001-06-01T00:00 | 3421 | 671 | -5.6 | -28.1 | |||
| 2001-06-01T00:00 | 3448 | 669 | -5.8 | -28.2 | |||
| 2001-06-01T00:00 | 3459 | 668 | -6.0 | -28.3 | |||
| 2001-06-01T00:00 | 3465 | 668 | -6.1 | -28.3 | |||
| 2001-06-01T00:00 | 3495 | 665 | -6.3 | -28.4 | |||
| 2001-06-01T00:00 | 3508 | 664 | -6.4 | -28.5 | |||
| 2001-06-01T00:00 | 3514 | 663 | -6.5 | -28.5 | |||
| 2001-06-01T00:00 | 3544 | 661 | -6.6 | -28.6 | |||
| 2001-06-01T00:00 | 3555 | 660 | -6.7 | -28.6 | |||
| 2001-06-01T00:00 | 3560 | 659 | -6.8 | -28.7 | 301 | 8 | |
| 2001-06-01T00:00 | 3589 | 657 | -6.9 | -29.0 | |||
| 2001-06-01T00:00 | 3603 | 656 | -7.0 | -29.4 | |||
| 2001-06-01T00:00 | 3610 | 655 | -7.0 | -29.4 | |||
| 2001-06-01T00:00 | 3643 | 652 | -7.3 | -29.9 | |||
| 2001-06-01T00:00 | 3663 | 651 | -7.5 | -30.1 | |||
| 2001-06-01T00:00 | 3669 | 650 | -7.6 | -30.2 | |||
| 2001-06-01T00:00 | 3701 | 648 | -7.8 | -30.4 | |||
| 2001-06-01T00:00 | 3713 | 647 | -7.9 | -30.6 | |||
| 2001-06-01T00:00 | 3718 | 646 | -7.9 | -30.6 | |||
| 2001-06-01T00:00 | 3746 | 644 | -8.2 | -30.9 | |||
| 2001-06-01T00:00 | 3757 | 643 | -8.3 | -31.0 | |||
| 2001-06-01T00:00 | 3762 | 643 | -8.3 | -31.0 | |||
| 2001-06-01T00:00 | 3787 | 640 | -8.5 | -31.1 | |||
| 2001-06-01T00:00 | 3798 | 640 | -8.7 | -31.2 | |||
| 2001-06-01T00:00 | 3803 | 639 | -8.7 | -31.2 | |||
| 2001-06-01T00:00 | 3829 | 637 | -8.8 | -31.5 | |||
| 2001-06-01T00:00 | 3841 | 636 | -8.9 | -31.7 | |||
| 2001-06-01T00:00 | 3847 | 636 | -8.9 | -31.8 | |||
| 2001-06-01T00:00 | 3876 | 633 | -9.1 | -32.4 | |||
| 2001-06-01T00:00 | 3887 | 632 | -9.2 | -32.8 | |||
| 2001-06-01T00:00 | 3893 | 632 | -9.2 | -32.9 | |||
| 2001-06-01T00:00 | 3910 | 630 | -9.3 | -33.2 | 306 | 11 | |
| 2001-06-01T00:00 | 3921 | 630 | -9.4 | -33.5 | |||
| 2001-06-01T00:00 | 3931 | 629 | -9.5 | -33.6 | |||
| 2001-06-01T00:00 | 3936 | 628 | -9.4 | -33.6 | |||
| 2001-06-01T00:00 | 3960 | 626 | -9.5 | -34.0 | |||
| 2001-06-01T00:00 | 3970 | 626 | -9.6 | -34.2 | |||
| 2001-06-01T00:00 | 3975 | 625 | -9.6 | -34.2 | |||
| 2001-06-01T00:00 | 3999 | 623 | -9.7 | -34.2 | |||
| 2001-06-01T00:00 | 4014 | 622 | -9.8 | -34.3 | |||
| 2001-06-01T00:00 | 4019 | 622 | -9.8 | -34.2 | |||
| 2001-06-01T00:00 | 4041 | 620 | -9.9 | -34.4 | |||
| 2001-06-01T00:00 | 4049 | 619 | -10.1 | -34.5 | |||
| 2001-06-01T00:00 | 4053 | 619 | -10.1 | -34.5 | |||
| 2001-06-01T00:00 | 4077 | 617 | -10.3 | -34.7 | |||
| 2001-06-01T00:00 | 4088 | 616 | -10.4 | -34.8 | |||
| 2001-06-01T00:00 | 4094 | 616 | -10.4 | -34.8 | |||
| 2001-06-01T00:00 | 4124 | 613 | -10.6 | -34.8 | |||
| 2001-06-01T00:00 | 4136 | 612 | -10.7 | -35.0 | |||
| 2001-06-01T00:00 | 4143 | 612 | -10.8 | -35.0 | |||
| 2001-06-01T00:00 | 4169 | 610 | -10.9 | -35.1 | |||
| 2001-06-01T00:00 | 4176 | 609 | -11.0 | -35.2 | |||
| 2001-06-01T00:00 | 4179 | 609 | -11.0 | -35.2 | |||
| 2001-06-01T00:00 | 4201 | 607 | -11.0 | -35.3 | |||
| 2001-06-01T00:00 | 4207 | 607 | -11.1 | -35.3 | 308 | 13 | |
| 2001-06-01T00:00 | 4212 | 606 | -11.1 | -35.4 | |||
| 2001-06-01T00:00 | 4218 | 606 | -11.1 | -35.4 | |||
| 2001-06-01T00:00 | 4245 | 604 | -11.2 | -35.6 | |||
| 2001-06-01T00:00 | 4261 | 602 | -11.1 | -35.6 | |||
| 2001-06-01T00:00 | 4266 | 602 | -11.2 | -35.7 | |||
| 2001-06-01T00:00 | 4290 | 600 | -11.3 | -35.6 | |||
| 2001-06-01T00:00 | 4292 | 600 | -11.3 | -35.6 | |||
| 2001-06-01T00:00 | 4302 | 599 | -11.4 | -35.7 | |||
| 2001-06-01T00:00 | 4308 | 599 | -11.5 | -35.7 | |||
| 2001-06-01T00:00 | 4334 | 597 | -11.7 | -35.5 | |||
| 2001-06-01T00:00 | 4346 | 596 | -11.8 | -35.4 | |||
| 2001-06-01T00:00 | 4351 | 595 | -11.8 | -35.4 | |||
| 2001-06-01T00:00 | 4379 | 593 | -11.9 | -35.2 | |||
| 2001-06-01T00:00 | 4390 | 592 | -12.0 | -35.1 | |||
| 2001-06-01T00:00 | 4395 | 592 | -12.1 | -35.1 | |||
| 2001-06-01T00:00 | 4423 | 590 | -12.2 | -35.1 | |||
| 2001-06-01T00:00 | 4434 | 589 | -12.4 | -35.1 | |||
| 2001-06-01T00:00 | 4439 | 588 | -12.4 | -35.1 | |||
| 2001-06-01T00:00 | 4465 | 586 | -12.6 | -35.2 | |||
| 2001-06-01T00:00 | 4478 | 585 | -12.7 | -35.2 | |||
| 2001-06-01T00:00 | 4483 | 585 | -12.8 | -35.3 | |||
| 2001-06-01T00:00 | 4508 | 583 | -12.9 | -35.3 | |||
| 2001-06-01T00:00 | 4519 | 582 | -13.0 | -35.3 | |||
| 2001-06-01T00:00 | 4525 | 582 | -13.1 | -35.3 | 306 | 13 | |
| 2001-06-01T00:00 | 4550 | 580 | -13.2 | -35.4 | |||
| 2001-06-01T00:00 | 4558 | 579 | -13.3 | -35.5 | |||
| 2001-06-01T00:00 | 4562 | 579 | -13.4 | -35.5 | |||
| 2001-06-01T00:00 | 4585 | 577 | -13.5 | -35.6 | |||
| 2001-06-01T00:00 | 4596 | 576 | -13.6 | -35.7 | |||
| 2001-06-01T00:00 | 4602 | 576 | -13.6 | -35.8 | |||
| 2001-06-01T00:00 | 4629 | 574 | -13.9 | -35.9 | |||
| 2001-06-01T00:00 | 4639 | 573 | -14.0 | -36.0 | |||
| 2001-06-01T00:00 | 4643 | 573 | -14.0 | -36.1 | |||
| 2001-06-01T00:00 | 4664 | 571 | -14.2 | -36.2 | |||
| 2001-06-01T00:00 | 4674 | 571 | -14.2 | -36.2 | |||
| 2001-06-01T00:00 | 4677 | 570 | -14.2 | -36.2 | |||
| 2001-06-01T00:00 | 4698 | 569 | -14.3 | -36.3 | |||
| 2001-06-01T00:00 | 4710 | 568 | -14.4 | -36.3 | |||
| 2001-06-01T00:00 | 4715 | 567 | -14.4 | -36.3 | |||
| 2001-06-01T00:00 | 4743 | 565 | -14.5 | -35.4 | |||
| 2001-06-01T00:00 | 4753 | 565 | -14.6 | -35.1 | |||
| 2001-06-01T00:00 | 4759 | 564 | -14.6 | -34.9 | |||
| 2001-06-01T00:00 | 4782 | 562 | -14.9 | -34.6 | |||
| 2001-06-01T00:00 | 4790 | 562 | -15.0 | -34.6 | |||
| 2001-06-01T00:00 | 4794 | 562 | -15.1 | -34.5 | |||
| 2001-06-01T00:00 | 4809 | 560 | -15.2 | -34.5 | 300 | 13 | |
| 2001-06-01T00:00 | 4818 | 560 | -15.3 | -34.5 | |||
| 2001-06-01T00:00 | 4830 | 559 | -15.4 | -34.6 | |||
| 2001-06-01T00:00 | 4836 | 558 | -15.4 | -34.6 | |||
| 2001-06-01T00:00 | 4861 | 557 | -15.6 | -34.7 | |||
| 2001-06-01T00:00 | 4872 | 556 | -15.7 | -34.8 | |||
| 2001-06-01T00:00 | 4875 | 556 | -15.7 | -34.8 | |||
| 2001-06-01T00:00 | 4895 | 554 | -15.9 | -35.1 | |||
| 2001-06-01T00:00 | 4905 | 553 | -16.0 | -35.2 | |||
| 2001-06-01T00:00 | 4909 | 553 | -16.1 | -35.2 | |||
| 2001-06-01T00:00 | 4934 | 551 | -16.2 | -35.5 | |||
| 2001-06-01T00:00 | 4944 | 550 | -16.3 | -35.7 | |||
| 2001-06-01T00:00 | 4949 | 550 | -16.3 | -35.7 | |||
| 2001-06-01T00:00 | 4974 | 548 | -16.6 | -36.0 | |||
| 2001-06-01T00:00 | 4983 | 548 | -16.7 | -36.1 | |||
| 2001-06-01T00:00 | 4987 | 547 | -16.7 | -36.1 | |||
| 2001-06-01T00:00 | 5008 | 546 | -16.9 | -36.2 | |||
| 2001-06-01T00:00 | 5020 | 545 | -17.0 | -36.3 | |||
| 2001-06-01T00:00 | 5024 | 545 | -17.0 | -36.4 | |||
| 2001-06-01T00:00 | 5047 | 543 | -17.1 | -36.4 | |||
| 2001-06-01T00:00 | 5058 | 542 | -17.1 | -36.5 | |||
| 2001-06-01T00:00 | 5063 | 542 | -17.1 | -36.5 | |||
| 2001-06-01T00:00 | 5086 | 540 | -17.1 | -36.7 | 306 | 15 | |
| 2001-06-01T00:00 | 5094 | 540 | -17.0 | -36.7 | |||
| 2001-06-01T00:00 | 5097 | 539 | -17.0 | -36.7 | |||
| 2001-06-01T00:00 | 5118 | 538 | -16.7 | -36.8 | |||
| 2001-06-01T00:00 | 5128 | 537 | -16.7 | -37.0 | |||
| 2001-06-01T00:00 | 5133 | 537 | -16.8 | -37.0 | |||
| 2001-06-01T00:00 | 5159 | 535 | -17.0 | -37.4 | |||
| 2001-06-01T00:00 | 5174 | 534 | -17.0 | -37.4 | |||
| 2001-06-01T00:00 | 5179 | 534 | -17.0 | -37.4 | |||
| 2001-06-01T00:00 | 5202 | 532 | -16.8 | -37.4 | |||
| 2001-06-01T00:00 | 5211 | 531 | -16.8 | -37.5 | |||
| 2001-06-01T00:00 | 5216 | 531 | -16.9 | -37.6 | |||
| 2001-06-01T00:00 | 5240 | 529 | -16.9 | -37.9 | |||
| 2001-06-01T00:00 | 5250 | 528 | -17.0 | -38.0 | |||
| 2001-06-01T00:00 | 5256 | 528 | -17.0 | -38.1 | |||
| 2001-06-01T00:00 | 5283 | 526 | -17.1 | -38.3 | |||
| 2001-06-01T00:00 | 5294 | 525 | -17.3 | -38.4 | |||
| 2001-06-01T00:00 | 5300 | 525 | -17.3 | -38.4 | |||
| 2001-06-01T00:00 | 5326 | 523 | -17.5 | -38.5 | |||
| 2001-06-01T00:00 | 5341 | 522 | -17.5 | -38.6 | |||
| 2001-06-01T00:00 | 5346 | 522 | -17.6 | -38.6 | |||
| 2001-06-01T00:00 | 5370 | 520 | -17.5 | -38.7 | |||
| 2001-06-01T00:00 | 5379 | 519 | -17.6 | -38.8 | 307 | 17 | |
| 2001-06-01T00:00 | 5383 | 519 | -17.6 | -38.9 | |||
| 2001-06-01T00:00 | 5408 | 517 | -17.8 | -39.1 | |||
| 2001-06-01T00:00 | 5420 | 517 | -17.8 | -39.1 | |||
| 2001-06-01T00:00 | 5426 | 516 | -17.8 | -39.1 | |||
| 2001-06-01T00:00 | 5451 | 514 | -18.0 | -39.3 | |||
| 2001-06-01T00:00 | 5459 | 514 | -18.1 | -39.4 | |||
| 2001-06-01T00:00 | 5463 | 514 | -18.1 | -39.4 | |||
| 2001-06-01T00:00 | 5484 | 512 | -18.3 | -39.6 | |||
| 2001-06-01T00:00 | 5497 | 511 | -18.4 | -39.7 | |||
| 2001-06-01T00:00 | 5501 | 511 | -18.4 | -39.7 | |||
| 2001-06-01T00:00 | 5522 | 510 | -18.5 | -39.9 | |||
| 2001-06-01T00:00 | 5529 | 509 | -18.6 | -40.0 | |||
| 2001-06-01T00:00 | 5533 | 509 | -18.6 | -40.0 | |||
| 2001-06-01T00:00 | 5554 | 507 | -18.7 | -40.1 | |||
| 2001-06-01T00:00 | 5563 | 507 | -18.8 | -40.2 | |||
| 2001-06-01T00:00 | 5568 | 506 | -18.8 | -40.2 | |||
| 2001-06-01T00:00 | 5593 | 505 | -19.0 | -40.3 | |||
| 2001-06-01T00:00 | 5609 | 504 | -19.1 | -40.4 | |||
| 2001-06-01T00:00 | 5614 | 503 | -19.1 | -40.5 | |||
| 2001-06-01T00:00 | 5638 | 502 | -19.3 | -40.5 | |||
| 2001-06-01T00:00 | 5647 | 501 | -19.4 | -40.6 | |||
| 2001-06-01T00:00 | 5652 | 501 | -19.4 | -40.6 | |||
| 2001-06-01T00:00 | 5657 | 500 | -19.5 | -40.7 | 305 | 20 | |
| 2001-06-01T00:00 | 5664 | 500 | -19.5 | -40.7 | |||
| 2001-06-01T00:00 | 5680 | 499 | -19.6 | -40.8 | |||
| 2001-06-01T00:00 | 5694 | 498 | -19.8 | -40.9 | |||
| 2001-06-01T00:00 | 5701 | 497 | -19.8 | -40.9 | |||
| 2001-06-01T00:00 | 5732 | 495 | -20.0 | -41.0 | |||
| 2001-06-01T00:00 | 5742 | 495 | -20.2 | -41.1 | |||
| 2001-06-01T00:00 | 5746 | 494 | -20.2 | -41.1 | |||
| 2001-06-01T00:00 | 5769 | 493 | -20.4 | -41.3 | |||
| 2001-06-01T00:00 | 5783 | 492 | -20.4 | -41.4 | |||
| 2001-06-01T00:00 | 5787 | 492 | -20.4 | -41.3 | |||
| 2001-06-01T00:00 | 5815 | 490 | -20.5 | -41.5 | |||
| 2001-06-01T00:00 | 5828 | 489 | -20.7 | -41.7 | |||
| 2001-06-01T00:00 | 5835 | 489 | -20.7 | -41.7 | |||
| 2001-06-01T00:00 | 5868 | 486 | -20.7 | -41.7 | |||
| 2001-06-01T00:00 | 5881 | 486 | -20.8 | -41.9 | |||
| 2001-06-01T00:00 | 5887 | 485 | -20.9 | -41.9 | |||
| 2001-06-01T00:00 | 5915 | 483 | -21.0 | -42.0 | |||
| 2001-06-01T00:00 | 5930 | 482 | -21.1 | -42.1 | |||
| 2001-06-01T00:00 | 5935 | 482 | -21.1 | -42.1 | |||
| 2001-06-01T00:00 | 5959 | 480 | -21.4 | -42.3 | |||
| 2001-06-01T00:00 | 5969 | 480 | -21.5 | -42.4 | |||
| 2001-06-01T00:00 | 5974 | 479 | -21.5 | -42.4 | |||
| 2001-06-01T00:00 | 5991 | 478 | -21.6 | -42.5 | 305 | 23 | |
| 2001-06-01T00:00 | 6002 | 478 | -21.6 | -42.5 | |||
| 2001-06-01T00:00 | 6015 | 477 | -21.7 | -42.6 | |||
| 2001-06-01T00:00 | 6022 | 476 | -21.8 | -42.6 | |||
| 2001-06-01T00:00 | 6052 | 474 | -21.9 | -42.7 | |||
| 2001-06-01T00:00 | 6068 | 473 | -22.0 | -42.8 | |||
| 2001-06-01T00:00 | 6073 | 473 | -22.0 | -42.8 | |||
| 2001-06-01T00:00 | 6100 | 471 | -22.1 | -42.9 | |||
| 2001-06-01T00:00 | 6112 | 471 | -22.2 | -43.0 | |||
| 2001-06-01T00:00 | 6117 | 470 | -22.2 | -43.0 | |||
| 2001-06-01T00:00 | 6149 | 468 | -22.4 | -43.2 | |||
| 2001-06-01T00:00 | 6163 | 467 | -22.5 | -43.3 | |||
| 2001-06-01T00:00 | 6170 | 467 | -22.6 | -43.3 | |||
| 2001-06-01T00:00 | 6198 | 465 | -22.8 | -43.4 | |||
| 2001-06-01T00:00 | 6207 | 464 | -22.9 | -43.5 | |||
| 2001-06-01T00:00 | 6211 | 464 | -23.0 | -43.5 | |||
| 2001-06-01T00:00 | 6232 | 463 | -23.2 | -43.7 | |||
| 2001-06-01T00:00 | 6243 | 462 | -23.3 | -43.8 | |||
| 2001-06-01T00:00 | 6249 | 462 | -23.4 | -43.9 | |||
| 2001-06-01T00:00 | 6278 | 460 | -23.5 | -43.9 | |||
| 2001-06-01T00:00 | 6289 | 459 | -23.5 | -44.0 | |||
| 2001-06-01T00:00 | 6294 | 459 | -23.6 | -44.0 | |||
| 2001-06-01T00:00 | 6323 | 457 | -23.7 | -44.1 | 302 | 26 | |
| 2001-06-01T00:00 | 6341 | 456 | -23.9 | -44.2 | |||
| 2001-06-01T00:00 | 6347 | 456 | -23.9 | -44.2 | |||
| 2001-06-01T00:00 | 6377 | 454 | -24.1 | -44.4 | |||
| 2001-06-01T00:00 | 6389 | 453 | -24.2 | -44.5 | |||
| 2001-06-01T00:00 | 6395 | 453 | -24.3 | -44.5 | |||
| 2001-06-01T00:00 | 6425 | 451 | -24.5 | -44.7 | |||
| 2001-06-01T00:00 | 6438 | 450 | -24.6 | -44.7 | |||
| 2001-06-01T00:00 | 6444 | 450 | -24.6 | -44.8 | |||
| 2001-06-01T00:00 | 6473 | 448 | -24.8 | -44.9 | |||
| 2001-06-01T00:00 | 6486 | 447 | -24.9 | -45.0 | |||
| 2001-06-01T00:00 | 6490 | 447 | -25.0 | -45.0 | |||
| 2001-06-01T00:00 | 6516 | 445 | -25.0 | -45.0 | |||
| 2001-06-01T00:00 | 6528 | 445 | -25.1 | -45.1 | |||
| 2001-06-01T00:00 | 6534 | 444 | -25.1 | -45.1 | |||
| 2001-06-01T00:00 | 6561 | 442 | -25.2 | -45.2 | |||
| 2001-06-01T00:00 | 6571 | 442 | -25.3 | -45.2 | |||
| 2001-06-01T00:00 | 6576 | 442 | -25.3 | -45.3 | |||
| 2001-06-01T00:00 | 6602 | 440 | -25.4 | -45.3 | |||
| 2001-06-01T00:00 | 6621 | 439 | -25.5 | -45.4 | |||
| 2001-06-01T00:00 | 6627 | 438 | -25.5 | -45.4 | |||
| 2001-06-01T00:00 | 6658 | 437 | -25.6 | -45.5 | |||
| 2001-06-01T00:00 | 6664 | 436 | -25.7 | -45.5 | 298 | 32 | |
| 2001-06-01T00:00 | 6670 | 436 | -25.7 | -45.5 | |||
| 2001-06-01T00:00 | 6676 | 436 | -25.8 | -45.6 | |||
| 2001-06-01T00:00 | 6706 | 434 | -26.0 | -45.7 | |||
| 2001-06-01T00:00 | 6718 | 433 | -26.2 | -45.9 | |||
| 2001-06-01T00:00 | 6729 | 432 | -26.3 | -45.9 | |||
| 2001-06-01T00:00 | 6759 | 431 | -26.4 | -45.9 | |||
| 2001-06-01T00:00 | 6771 | 430 | -26.5 | -46.0 | |||
| 2001-06-01T00:00 | 6777 | 429 | -26.5 | -46.0 | |||
| 2001-06-01T00:00 | 6806 | 428 | -26.6 | -46.0 | |||
| 2001-06-01T00:00 | 6817 | 427 | -26.7 | -46.0 | |||
| 2001-06-01T00:00 | 6822 | 427 | -26.7 | -46.0 | |||
| 2001-06-01T00:00 | 6850 | 425 | -26.9 | -46.1 | |||
| 2001-06-01T00:00 | 6866 | 424 | -27.0 | -46.2 | |||
| 2001-06-01T00:00 | 6872 | 424 | -27.0 | -46.2 | |||
| 2001-06-01T00:00 | 6899 | 422 | -27.1 | -46.2 | |||
| 2001-06-01T00:00 | 6910 | 422 | -27.3 | -46.2 | |||
| 2001-06-01T00:00 | 6915 | 421 | -27.3 | -46.2 | |||
| 2001-06-01T00:00 | 6940 | 420 | -27.4 | -46.3 | |||
| 2001-06-01T00:00 | 6950 | 419 | -27.6 | -46.4 | |||
| 2001-06-01T00:00 | 6954 | 419 | -27.6 | -46.4 | |||
| 2001-06-01T00:00 | 6979 | 418 | -27.8 | -46.5 | |||
| 2001-06-01T00:00 | 6995 | 417 | -27.9 | -46.6 | 295 | 34 | |
| 2001-06-01T00:00 | 7001 | 416 | -28.0 | -46.6 | |||
| 2001-06-01T00:00 | 7028 | 415 | -28.1 | -46.7 | |||
| 2001-06-01T00:00 | 7038 | 414 | -28.3 | -46.8 | |||
| 2001-06-01T00:00 | 7044 | 414 | -28.4 | -46.8 | |||
| 2001-06-01T00:00 | 7071 | 412 | -28.5 | -47.0 | |||
| 2001-06-01T00:00 | 7089 | 411 | -28.7 | -47.1 | |||
| 2001-06-01T00:00 | 7095 | 411 | -28.7 | -47.1 | |||
| 2001-06-01T00:00 | 7124 | 409 | -28.8 | -47.2 | |||
| 2001-06-01T00:00 | 7135 | 409 | -28.8 | -47.2 | |||
| 2001-06-01T00:00 | 7140 | 408 | -28.9 | -47.2 | |||
| 2001-06-01T00:00 | 7169 | 407 | -29.2 | -47.5 | |||
| 2001-06-01T00:00 | 7182 | 406 | -29.2 | -47.5 | |||
| 2001-06-01T00:00 | 7194 | 405 | -29.2 | -47.5 | |||
| 2001-06-01T00:00 | 7226 | 403 | -29.4 | -47.7 | |||
| 2001-06-01T00:00 | 7240 | 403 | -29.6 | -47.9 | |||
| 2001-06-01T00:00 | 7247 | 402 | -29.7 | -47.9 | |||
| 2001-06-01T00:00 | 7279 | 400 | -29.9 | -48.1 | |||
| 2001-06-01T00:00 | 7287 | 400 | -30.0 | -48.2 | |||
| 2001-06-01T00:00 | 7289 | 400 | -30.0 | -48.2 | |||
| 2001-06-01T00:00 | 7295 | 400 | -30.1 | -48.2 | |||
| 2001-06-01T00:00 | 7325 | 398 | -30.4 | -48.4 | |||
| 2001-06-01T00:00 | 7347 | 397 | -30.6 | -48.6 | |||
| 2001-06-01T00:00 | 7355 | 396 | -30.7 | -48.7 | 289 | 38 | |
| 2001-06-01T00:00 | 7387 | 394 | -31.0 | -48.9 | |||
| 2001-06-01T00:00 | 7397 | 394 | -31.1 | -49.0 | |||
| 2001-06-01T00:00 | 7402 | 394 | -31.2 | -49.0 | |||
| 2001-06-01T00:00 | 7427 | 392 | -31.4 | -49.1 | |||
| 2001-06-01T00:00 | 7443 | 391 | -31.6 | -49.3 | |||
| 2001-06-01T00:00 | 7448 | 391 | -31.6 | -49.3 | |||
| 2001-06-01T00:00 | 7476 | 389 | -31.8 | -49.5 | |||
| 2001-06-01T00:00 | 7489 | 389 | -32.0 | -49.6 | |||
| 2001-06-01T00:00 | 7495 | 388 | -32.1 | -49.6 | |||
| 2001-06-01T00:00 | 7525 | 387 | -32.4 | -49.9 | |||
| 2001-06-01T00:00 | 7540 | 386 | -32.4 | -49.8 | |||
| 2001-06-01T00:00 | 7545 | 386 | -32.4 | -49.9 | |||
| 2001-06-01T00:00 | 7570 | 384 | -32.3 | -49.7 | |||
| 2001-06-01T00:00 | 7579 | 384 | -32.3 | -49.8 | |||
| 2001-06-01T00:00 | 7584 | 384 | -32.4 | -49.8 | |||
| 2001-06-01T00:00 | 7607 | 382 | -32.4 | -49.8 | |||
| 2001-06-01T00:00 | 7616 | 382 | -32.5 | -49.8 | |||
| 2001-06-01T00:00 | 7626 | 381 | -32.5 | -49.8 | |||
| 2001-06-01T00:00 | 7651 | 380 | -32.6 | -49.8 | |||
| 2001-06-01T00:00 | 7661 | 379 | -32.6 | -49.8 | |||
| 2001-06-01T00:00 | 7667 | 379 | -32.6 | -49.8 | |||
| 2001-06-01T00:00 | 7671 | 379 | -32.7 | -49.8 | 284 | 41 | |
| 2001-06-01T00:00 | 7691 | 378 | -32.8 | -50.0 | |||
| 2001-06-01T00:00 | 7700 | 377 | -32.9 | -50.0 | |||
| 2001-06-01T00:00 | 7709 | 377 | -32.8 | -49.9 | |||
| 2001-06-01T00:00 | 7733 | 376 | -32.9 | -49.9 | |||
| 2001-06-01T00:00 | 7744 | 375 | -33.0 | -50.0 | |||
| 2001-06-01T00:00 | 7750 | 375 | -33.0 | -50.0 | |||
| 2001-06-01T00:00 | 7775 | 373 | -33.1 | -50.0 | |||
| 2001-06-01T00:00 | 7784 | 373 | -33.2 | -50.1 | |||
| 2001-06-01T00:00 | 7788 | 373 | -33.2 | -50.1 | |||
| 2001-06-01T00:00 | 7811 | 371 | -33.4 | -50.1 | |||
| 2001-06-01T00:00 | 7824 | 371 | -33.5 | -50.2 | |||
| 2001-06-01T00:00 | 7829 | 370 | -33.6 | -50.2 | |||
| 2001-06-01T00:00 | 7852 | 369 | -33.7 | -50.2 | |||
| 2001-06-01T00:00 | 7863 | 369 | -33.9 | -50.3 | |||
| 2001-06-01T00:00 | 7868 | 368 | -33.9 | -50.3 | |||
| 2001-06-01T00:00 | 7893 | 367 | -34.1 | -50.4 | |||
| 2001-06-01T00:00 | 7906 | 366 | -34.2 | -50.5 | |||
| 2001-06-01T00:00 | 7911 | 366 | -34.2 | -50.5 | |||
| 2001-06-01T00:00 | 7937 | 365 | -34.4 | -50.7 | |||
| 2001-06-01T00:00 | 7950 | 364 | -34.5 | -50.8 | |||
| 2001-06-01T00:00 | 7956 | 364 | -34.5 | -50.8 | |||
| 2001-06-01T00:00 | 7967 | 363 | -34.6 | -50.8 | 285 | 44 | |
| 2001-06-01T00:00 | 7984 | 362 | -34.6 | -50.9 | |||
| 2001-06-01T00:00 | 7997 | 362 | -34.8 | -51.0 | |||
| 2001-06-01T00:00 | 8002 | 361 | -34.8 | -51.0 | |||
| 2001-06-01T00:00 | 8023 | 360 | -35.0 | -51.1 | |||
| 2001-06-01T00:00 | 8032 | 360 | -35.1 | -51.2 | |||
| 2001-06-01T00:00 | 8036 | 360 | -35.1 | -51.2 | |||
| 2001-06-01T00:00 | 8059 | 358 | -35.3 | -51.4 | |||
| 2001-06-01T00:00 | 8075 | 358 | -35.5 | -51.5 | |||
| 2001-06-01T00:00 | 8081 | 357 | -35.5 | -51.5 | |||
| 2001-06-01T00:00 | 8107 | 356 | -35.8 | -51.7 | |||
| 2001-06-01T00:00 | 8117 | 355 | -35.9 | -51.8 | |||
| 2001-06-01T00:00 | 8122 | 355 | -35.9 | -51.8 | |||
| 2001-06-01T00:00 | 8149 | 354 | -36.1 | -51.9 | |||
| 2001-06-01T00:00 | 8167 | 353 | -36.3 | -52.1 | |||
| 2001-06-01T00:00 | 8173 | 353 | -36.3 | -52.1 | |||
| 2001-06-01T00:00 | 8200 | 351 | -36.6 | -52.2 | |||
| 2001-06-01T00:00 | 8209 | 351 | -36.8 | -52.3 | |||
| 2001-06-01T00:00 | 8214 | 351 | -36.8 | -52.4 | |||
| 2001-06-01T00:00 | 8239 | 349 | -37.0 | -52.5 | |||
| 2001-06-01T00:00 | 8256 | 348 | -37.2 | -52.6 | |||
| 2001-06-01T00:00 | 8262 | 348 | -37.2 | -52.6 | |||
| 2001-06-01T00:00 | 8274 | 348 | -37.3 | -52.7 | 286 | 43 | |
| 2001-06-01T00:00 | 8292 | 347 | -37.4 | -52.8 | |||
| 2001-06-01T00:00 | 8304 | 346 | -37.6 | -52.9 | |||
| 2001-06-01T00:00 | 8311 | 346 | -37.7 | -53.0 | |||
| 2001-06-01T00:00 | 8340 | 344 | -37.8 | -53.1 | |||
| 2001-06-01T00:00 | 8357 | 343 | -37.9 | -53.2 | |||
| 2001-06-01T00:00 | 8362 | 343 | -38.0 | -53.2 | |||
| 2001-06-01T00:00 | 8391 | 342 | -38.0 | -53.2 | |||
| 2001-06-01T00:00 | 8404 | 341 | -38.1 | -53.2 | |||
| 2001-06-01T00:00 | 8410 | 341 | -38.2 | -53.3 | |||
| 2001-06-01T00:00 | 8438 | 339 | -38.2 | -53.3 | |||
| 2001-06-01T00:00 | 8451 | 339 | -38.3 | -53.3 | |||
| 2001-06-01T00:00 | 8455 | 338 | -38.3 | -53.4 | |||
| 2001-06-01T00:00 | 8477 | 337 | -38.4 | -53.4 | |||
| 2001-06-01T00:00 | 8486 | 337 | -38.5 | -53.5 | |||
| 2001-06-01T00:00 | 8495 | 336 | -38.6 | -53.6 | |||
| 2001-06-01T00:00 | 8523 | 335 | -38.7 | -53.7 | |||
| 2001-06-01T00:00 | 8537 | 334 | -38.8 | -53.8 | |||
| 2001-06-01T00:00 | 8544 | 334 | -38.9 | -53.9 | |||
| 2001-06-01T00:00 | 8575 | 333 | -39.0 | -54.0 | |||
| 2001-06-01T00:00 | 8586 | 332 | -39.0 | -54.0 | |||
| 2001-06-01T00:00 | 8597 | 332 | -39.0 | -53.9 | |||
| 2001-06-01T00:00 | 8609 | 331 | -39.0 | -54.0 | 281 | 45 | |
| 2001-06-01T00:00 | 8628 | 330 | -39.0 | -54.0 | |||
| 2001-06-01T00:00 | 8642 | 329 | -39.2 | -54.2 | |||
| 2001-06-01T00:00 | 8649 | 329 | -39.3 | -54.3 | |||
| 2001-06-01T00:00 | 8684 | 327 | -39.5 | -54.5 | |||
| 2001-06-01T00:00 | 8704 | 326 | -39.8 | -54.7 | |||
| 2001-06-01T00:00 | 8711 | 326 | -39.8 | -54.7 | |||
| 2001-06-01T00:00 | 8745 | 324 | -40.1 | -55.0 | |||
| 2001-06-01T00:00 | 8760 | 324 | -40.2 | -55.0 | |||
| 2001-06-01T00:00 | 8768 | 323 | -40.2 | -55.0 | |||
| 2001-06-01T00:00 | 8797 | 322 | -40.1 | -54.9 | |||
| 2001-06-01T00:00 | 8807 | 321 | -40.1 | -55.0 | |||
| 2001-06-01T00:00 | 8811 | 321 | -40.1 | -55.0 | |||
| 2001-06-01T00:00 | 8835 | 320 | -40.2 | -55.1 | |||
| 2001-06-01T00:00 | 8849 | 320 | -40.3 | -55.2 | |||
| 2001-06-01T00:00 | 8857 | 319 | -40.4 | -55.3 | |||
| 2001-06-01T00:00 | 8887 | 318 | -40.5 | -55.3 | |||
| 2001-06-01T00:00 | 8901 | 317 | -40.6 | -55.4 | |||
| 2001-06-01T00:00 | 8906 | 317 | -40.7 | -55.5 | |||
| 2001-06-01T00:00 | 8932 | 316 | -40.9 | -55.6 | |||
| 2001-06-01T00:00 | 8944 | 315 | -41.0 | -55.8 | |||
| 2001-06-01T00:00 | 8950 | 315 | -41.1 | -55.8 | |||
| 2001-06-01T00:00 | 8968 | 314 | -41.1 | -55.9 | 282 | 49 | |
| 2001-06-01T00:00 | 8980 | 313 | -41.2 | -55.9 | |||
| 2001-06-01T00:00 | 8998 | 313 | -41.2 | -56.0 | |||
| 2001-06-01T00:00 | 9004 | 312 | -41.2 | -56.0 | |||
| 2001-06-01T00:00 | 9031 | 311 | -41.2 | -56.0 | |||
| 2001-06-01T00:00 | 9040 | 311 | -41.3 | -56.0 | |||
| 2001-06-01T00:00 | 9048 | 310 | -41.3 | -56.0 | |||
| 2001-06-01T00:00 | 9070 | 309 | -41.4 | -56.1 | |||
| 2001-06-01T00:00 | 9079 | 309 | -41.5 | -56.2 | |||
| 2001-06-01T00:00 | 9084 | 309 | -41.5 | -56.2 | |||
| 2001-06-01T00:00 | 9106 | 308 | -41.4 | -56.1 | |||
| 2001-06-01T00:00 | 9119 | 307 | -41.4 | -56.1 | |||
| 2001-06-01T00:00 | 9124 | 307 | -41.5 | -56.1 | |||
| 2001-06-01T00:00 | 9147 | 306 | -41.5 | -56.2 | |||
| 2001-06-01T00:00 | 9156 | 305 | -41.6 | -56.2 | |||
| 2001-06-01T00:00 | 9161 | 305 | -41.6 | -56.2 | |||
| 2001-06-01T00:00 | 9187 | 304 | -41.6 | -56.3 | |||
| 2001-06-01T00:00 | 9202 | 303 | -41.8 | -56.4 | |||
| 2001-06-01T00:00 | 9208 | 303 | -41.7 | -56.4 | |||
| 2001-06-01T00:00 | 9233 | 302 | -41.9 | -56.5 | |||
| 2001-06-01T00:00 | 9243 | 302 | -42.0 | -56.6 | |||
| 2001-06-01T00:00 | 9248 | 301 | -42.1 | -56.7 | |||
| 2001-06-01T00:00 | 9263 | 301 | -42.1 | -56.7 | 282 | 52 | |
| 2001-06-01T00:00 | 9274 | 300 | -42.1 | -56.7 | |||
| 2001-06-01T00:00 | 9277 | 300 | -42.1 | -56.7 | |||
| 2001-06-01T00:00 | 9290 | 299 | -42.2 | -56.8 | |||
| 2001-06-01T00:00 | 9295 | 299 | -42.2 | -56.8 | |||
| 2001-06-01T00:00 | 9321 | 298 | -42.3 | -56.9 | |||
| 2001-06-01T00:00 | 9332 | 298 | -42.5 | -57.0 | |||
| 2001-06-01T00:00 | 9337 | 297 | -42.5 | -57.0 | |||
| 2001-06-01T00:00 | 9361 | 296 | -42.7 | -57.1 | |||
| 2001-06-01T00:00 | 9373 | 296 | -42.8 | -57.2 | |||
| 2001-06-01T00:00 | 9377 | 296 | -42.8 | -57.2 | |||
| 2001-06-01T00:00 | 9400 | 295 | -42.8 | -57.3 | |||
| 2001-06-01T00:00 | 9410 | 294 | -43.0 | -57.4 | |||
| 2001-06-01T00:00 | 9421 | 294 | -43.0 | -57.4 | |||
| 2001-06-01T00:00 | 9449 | 292 | -43.2 | -57.6 | |||
| 2001-06-01T00:00 | 9460 | 292 | -43.3 | -57.7 | |||
| 2001-06-01T00:00 | 9466 | 292 | -43.4 | -57.7 | |||
| 2001-06-01T00:00 | 9493 | 291 | -43.5 | -57.8 | |||
| 2001-06-01T00:00 | 9508 | 290 | -43.6 | -57.9 | |||
| 2001-06-01T00:00 | 9513 | 290 | -43.7 | -57.9 | |||
| 2001-06-01T00:00 | 9537 | 289 | -43.8 | -58.1 | |||
| 2001-06-01T00:00 | 9547 | 288 | -43.9 | -58.2 | |||
| 2001-06-01T00:00 | 9552 | 288 | -43.9 | -58.1 | |||
| 2001-06-01T00:00 | 9566 | 287 | -43.9 | -58.1 | 285 | 54 | |
| 2001-06-01T00:00 | 9576 | 287 | -43.9 | -58.2 | |||
| 2001-06-01T00:00 | 9589 | 286 | -44.0 | -58.2 | |||
| 2001-06-01T00:00 | 9593 | 286 | -44.0 | -58.2 | |||
| 2001-06-01T00:00 | 9616 | 285 | -44.2 | -58.3 | |||
| 2001-06-01T00:00 | 9625 | 285 | -44.2 | -58.4 | |||
| 2001-06-01T00:00 | 9630 | 285 | -44.2 | -58.4 | |||
| 2001-06-01T00:00 | 9653 | 284 | -44.2 | -58.4 | |||
| 2001-06-01T00:00 | 9666 | 283 | -44.3 | -58.5 | |||
| 2001-06-01T00:00 | 9671 | 283 | -44.4 | -58.5 | |||
| 2001-06-01T00:00 | 9693 | 282 | -44.5 | -58.6 | |||
| 2001-06-01T00:00 | 9703 | 282 | -44.6 | -58.7 | |||
| 2001-06-01T00:00 | 9713 | 281 | -44.6 | -58.7 | |||
| 2001-06-01T00:00 | 9738 | 280 | -44.7 | -58.8 | |||
| 2001-06-01T00:00 | 9748 | 280 | -44.8 | -58.9 | |||
| 2001-06-01T00:00 | 9753 | 279 | -44.9 | -58.9 | |||
| 2001-06-01T00:00 | 9779 | 278 | -45.0 | -59.0 | |||
| 2001-06-01T00:00 | 9796 | 278 | -45.1 | -59.1 | |||
| 2001-06-01T00:00 | 9801 | 277 | -45.1 | -59.1 | |||
| 2001-06-01T00:00 | 9827 | 276 | -44.8 | -58.8 | |||
| 2001-06-01T00:00 | 9835 | 276 | -44.9 | -58.9 | |||
| 2001-06-01T00:00 | 9839 | 276 | -44.9 | -58.9 | |||
| 2001-06-01T00:00 | 9853 | 275 | -45.0 | -58.9 | 284 | 60 | |
| 2001-06-01T00:00 | 9862 | 275 | -45.0 | -58.9 | |||
| 2001-06-01T00:00 | 9878 | 274 | -45.1 | -59.1 | |||
| 2001-06-01T00:00 | 9884 | 274 | -45.2 | -59.1 | |||
| 2001-06-01T00:00 | 9907 | 273 | -45.4 | -59.2 | |||
| 2001-06-01T00:00 | 9913 | 273 | -45.5 | -59.3 | |||
| 2001-06-01T00:00 | 9920 | 273 | -45.5 | -59.3 | |||
| 2001-06-01T00:00 | 9945 | 272 | -45.7 | -59.4 | |||
| 2001-06-01T00:00 | 9960 | 271 | -45.8 | -59.5 | |||
| 2001-06-01T00:00 | 9967 | 271 | -45.8 | -59.5 | |||
| 2001-06-01T00:00 | 9999 | 269 | -46.0 | -59.7 | |||
| 2001-06-01T00:00 | 10013 | 269 | -46.3 | -59.9 | |||
| 2001-06-01T00:00 | 10018 | 269 | -46.3 | -59.9 | |||
| 2001-06-01T00:00 | 10047 | 267 | -46.6 | -60.1 | |||
| 2001-06-01T00:00 | 10062 | 267 | -46.8 | -60.3 | |||
| 2001-06-01T00:00 | 10069 | 267 | -46.9 | -60.3 | |||
| 2001-06-01T00:00 | 10100 | 265 | -47.0 | -60.4 | |||
| 2001-06-01T00:00 | 10113 | 265 | -47.2 | -60.6 | |||
| 2001-06-01T00:00 | 10118 | 265 | -47.3 | -60.6 | |||
| 2001-06-01T00:00 | 10142 | 264 | -47.5 | -60.8 | |||
| 2001-06-01T00:00 | 10153 | 263 | -47.7 | -61.0 | |||
| 2001-06-01T00:00 | 10165 | 263 | -47.8 | -61.0 | |||
| 2001-06-01T00:00 | 10176 | 262 | -47.9 | -61.0 | 282 | 62 | |
| 2001-06-01T00:00 | 10193 | 262 | -48.0 | -61.1 | |||
| 2001-06-01T00:00 | 10205 | 261 | -48.2 | -61.3 | |||
| 2001-06-01T00:00 | 10211 | 261 | -48.2 | -61.3 | |||
| 2001-06-01T00:00 | 10242 | 260 | -48.3 | -61.4 | |||
| 2001-06-01T00:00 | 10261 | 259 | -48.5 | -61.5 | |||
| 2001-06-01T00:00 | 10267 | 259 | -48.6 | -61.6 | |||
| 2001-06-01T00:00 | 10302 | 257 | -48.8 | -61.7 | |||
| 2001-06-01T00:00 | 10317 | 257 | -49.0 | -61.9 | |||
| 2001-06-01T00:00 | 10325 | 256 | -49.0 | -61.9 | |||
| 2001-06-01T00:00 | 10359 | 255 | -49.2 | -62.1 | |||
| 2001-06-01T00:00 | 10374 | 254 | -49.4 | -62.2 | |||
| 2001-06-01T00:00 | 10378 | 254 | -49.5 | -62.3 | |||
| 2001-06-01T00:00 | 10407 | 253 | -49.5 | -62.3 | |||
| 2001-06-01T00:00 | 10420 | 253 | -49.8 | -62.5 | |||
| 2001-06-01T00:00 | 10433 | 252 | -49.8 | -62.5 | |||
| 2001-06-01T00:00 | 10465 | 251 | -49.9 | -62.6 | |||
| 2001-06-01T00:00 | 10476 | 251 | -50.0 | -62.7 | |||
| 2001-06-01T00:00 | 10482 | 250 | -50.1 | -62.8 | |||
| 2001-06-01T00:00 | 10490 | 250 | -50.1 | -62.8 | |||
| 2001-06-01T00:00 | 10511 | 249 | -50.2 | -62.9 | |||
| 2001-06-01T00:00 | 10528 | 249 | -50.3 | -63.0 | |||
| 2001-06-01T00:00 | 10534 | 248 | -50.3 | -63.0 | |||
| 2001-06-01T00:00 | 10546 | 248 | -50.4 | -63.0 | 286 | 58 | |
| 2001-06-01T00:00 | 10564 | 247 | -50.5 | -63.1 | |||
| 2001-06-01T00:00 | 10577 | 247 | -50.5 | -63.1 | |||
| 2001-06-01T00:00 | 10591 | 246 | -50.4 | -63.0 | |||
| 2001-06-01T00:00 | 10624 | 245 | -50.3 | -62.9 | |||
| 2001-06-01T00:00 | 10637 | 244 | -50.4 | -63.0 | |||
| 2001-06-01T00:00 | 10644 | 244 | -50.4 | -63.0 | |||
| 2001-06-01T00:00 | 10676 | 243 | -50.6 | -63.2 | |||
| 2001-06-01T00:00 | 10694 | 242 | -50.7 | -63.3 | |||
| 2001-06-01T00:00 | 10700 | 242 | -50.8 | -63.3 | |||
| 2001-06-01T00:00 | 10729 | 241 | -51.0 | -63.5 | |||
| 2001-06-01T00:00 | 10740 | 241 | -51.1 | -63.6 | |||
| 2001-06-01T00:00 | 10746 | 240 | -51.2 | -63.7 | |||
| 2001-06-01T00:00 | 10774 | 239 | -51.3 | -63.8 | |||
| 2001-06-01T00:00 | 10791 | 239 | -51.3 | -63.8 | |||
| 2001-06-01T00:00 | 10797 | 239 | -51.4 | -63.9 | |||
| 2001-06-01T00:00 | 10825 | 237 | -51.6 | -64.0 | |||
| 2001-06-01T00:00 | 10842 | 237 | -51.7 | -64.1 | |||
| 2001-06-01T00:00 | 10847 | 237 | -51.7 | -64.1 | |||
| 2001-06-01T00:00 | 10872 | 236 | -51.7 | -64.1 | |||
| 2001-06-01T00:00 | 10880 | 235 | -51.8 | -64.2 | |||
| 2001-06-01T00:00 | 10884 | 235 | -51.8 | -64.2 | |||
| 2001-06-01T00:00 | 10893 | 235 | -51.7 | -64.1 | 286 | 54 | |
| 2001-06-01T00:00 | 10907 | 234 | -51.6 | -64.0 | |||
| 2001-06-01T00:00 | 10921 | 234 | -51.7 | -64.2 | |||
| 2001-06-01T00:00 | 10926 | 234 | -51.8 | -64.2 | |||
| 2001-06-01T00:00 | 10949 | 233 | -51.9 | -64.3 | |||
| 2001-06-01T00:00 | 10958 | 233 | -52.0 | -64.4 | |||
| 2001-06-01T00:00 | 10967 | 232 | -52.0 | -64.4 | |||
| 2001-06-01T00:00 | 10989 | 232 | -52.0 | -64.3 | |||
| 2001-06-01T00:00 | 10999 | 231 | -52.1 | -64.4 | |||
| 2001-06-01T00:00 | 11003 | 231 | -52.1 | -64.4 | |||
| 2001-06-01T00:00 | 11027 | 230 | -52.2 | -64.5 | |||
| 2001-06-01T00:00 | 11041 | 230 | -52.3 | -64.6 | |||
| 2001-06-01T00:00 | 11045 | 230 | -52.2 | -64.6 | |||
| 2001-06-01T00:00 | 11069 | 229 | -52.1 | -64.5 | |||
| 2001-06-01T00:00 | 11079 | 228 | -52.2 | -64.6 | |||
| 2001-06-01T00:00 | 11089 | 228 | -52.2 | -64.6 | |||
| 2001-06-01T00:00 | 11111 | 227 | -52.1 | -64.5 | |||
| 2001-06-01T00:00 | 11117 | 227 | -52.3 | -64.6 | |||
| 2001-06-01T00:00 | 11121 | 227 | -52.2 | -64.6 | |||
| 2001-06-01T00:00 | 11145 | 226 | -52.2 | -64.5 | |||
| 2001-06-01T00:00 | 11166 | 225 | -52.3 | -64.6 | |||
| 2001-06-01T00:00 | 11172 | 225 | -52.3 | -64.7 | |||
| 2001-06-01T00:00 | 11178 | 225 | -52.3 | -64.6 | 284 | 47 | |
| 2001-06-01T00:00 | 11201 | 224 | -52.1 | -64.4 | |||
| 2001-06-01T00:00 | 11209 | 224 | -52.0 | -64.4 | |||
| 2001-06-01T00:00 | 11217 | 224 | -52.0 | -64.4 | |||
| 2001-06-01T00:00 | 11238 | 223 | -51.8 | -64.2 | |||
| 2001-06-01T00:00 | 11247 | 222 | -51.7 | -64.2 | |||
| 2001-06-01T00:00 | 11252 | 222 | -51.7 | -64.2 | |||
| 2001-06-01T00:00 | 11274 | 222 | -51.5 | -64.0 | |||
| 2001-06-01T00:00 | 11287 | 221 | -51.5 | -64.0 | |||
| 2001-06-01T00:00 | 11291 | 221 | -51.3 | -63.9 | |||
| 2001-06-01T00:00 | 11314 | 220 | -51.2 | -63.8 | |||
| 2001-06-01T00:00 | 11325 | 220 | -51.3 | -63.8 | |||
| 2001-06-01T00:00 | 11330 | 220 | -51.3 | -63.8 | |||
| 2001-06-01T00:00 | 11354 | 219 | -51.3 | -63.9 | |||
| 2001-06-01T00:00 | 11366 | 218 | -51.4 | -64.0 | |||
| 2001-06-01T00:00 | 11370 | 218 | -51.5 | -64.0 | |||
| 2001-06-01T00:00 | 11394 | 218 | -51.5 | -64.0 | |||
| 2001-06-01T00:00 | 11406 | 217 | -51.6 | -64.1 | |||
| 2001-06-01T00:00 | 11412 | 217 | -51.6 | -64.1 | |||
| 2001-06-01T00:00 | 11439 | 216 | -51.5 | -64.0 | |||
| 2001-06-01T00:00 | 11455 | 215 | -51.4 | -64.0 | |||
| 2001-06-01T00:00 | 11460 | 215 | -51.4 | -64.0 | |||
| 2001-06-01T00:00 | 11465 | 215 | -51.4 | -64.0 | 283 | 41 | |
| 2001-06-01T00:00 | 11487 | 214 | -51.3 | -63.9 | |||
| 2001-06-01T00:00 | 11499 | 214 | -51.4 | -64.0 | |||
| 2001-06-01T00:00 | 11511 | 214 | -51.4 | -64.0 | |||
| 2001-06-01T00:00 | 11537 | 213 | -51.4 | -64.0 | |||
| 2001-06-01T00:00 | 11546 | 212 | -51.5 | -64.1 | |||
| 2001-06-01T00:00 | 11550 | 212 | -51.4 | -64.0 | |||
| 2001-06-01T00:00 | 11572 | 212 | -51.2 | -63.9 | |||
| 2001-06-01T00:00 | 11586 | 211 | -51.2 | -63.8 | |||
| 2001-06-01T00:00 | 11591 | 211 | -51.2 | -63.9 | |||
| 2001-06-01T00:00 | 11616 | 210 | -51.3 | -64.0 | |||
| 2001-06-01T00:00 | 11627 | 210 | -51.4 | -64.0 | |||
| 2001-06-01T00:00 | 11633 | 210 | -51.4 | -64.0 | |||
| 2001-06-01T00:00 | 11656 | 209 | -51.4 | -64.1 | |||
| 2001-06-01T00:00 | 11666 | 209 | -51.5 | -64.1 | |||
| 2001-06-01T00:00 | 11670 | 208 | -51.5 | -64.1 | |||
| 2001-06-01T00:00 | 11690 | 208 | -51.3 | -64.0 | |||
| 2001-06-01T00:00 | 11701 | 207 | -51.2 | -63.9 | |||
| 2001-06-01T00:00 | 11712 | 207 | -51.2 | -63.8 | |||
| 2001-06-01T00:00 | 11738 | 206 | -51.0 | -63.7 | |||
| 2001-06-01T00:00 | 11748 | 206 | -51.0 | -63.7 | |||
| 2001-06-01T00:00 | 11753 | 206 | -51.0 | -63.7 | |||
| 2001-06-01T00:00 | 11757 | 206 | -51.0 | -63.7 | 277 | 39 | |
| 2001-06-01T00:00 | 11777 | 205 | -50.8 | -63.6 | |||
| 2001-06-01T00:00 | 11787 | 205 | -50.8 | -63.5 | |||
| 2001-06-01T00:00 | 11796 | 204 | -50.8 | -63.6 | |||
| 2001-06-01T00:00 | 11819 | 204 | -50.8 | -63.5 | |||
| 2001-06-01T00:00 | 11828 | 203 | -50.8 | -63.6 | |||
| 2001-06-01T00:00 | 11833 | 203 | -50.8 | -63.6 | |||
| 2001-06-01T00:00 | 11856 | 203 | -50.8 | -63.6 | |||
| 2001-06-01T00:00 | 11865 | 202 | -50.9 | -63.7 | |||
| 2001-06-01T00:00 | 11875 | 202 | -50.9 | -63.7 | |||
| 2001-06-01T00:00 | 11898 | 201 | -50.8 | -63.6 | |||
| 2001-06-01T00:00 | 11907 | 201 | -50.8 | -63.7 | |||
| 2001-06-01T00:00 | 11912 | 201 | -50.8 | -63.7 | |||
| 2001-06-01T00:00 | 11936 | 200 | -50.9 | -63.7 | |||
| 2001-06-01T00:00 | 11939 | 200 | -50.9 | -63.7 | |||
| 2001-06-01T00:00 | 11951 | 200 | -51.0 | ||||
| 2001-06-01T00:00 | 11956 | 199 | -50.9 | ||||
| 2001-06-01T00:00 | 11984 | 199 | -51.0 | ||||
| 2001-06-01T00:00 | 11996 | 198 | -51.2 | ||||
| 2001-06-01T00:00 | 12002 | 198 | -51.1 | ||||
| 2001-06-01T00:00 | 12029 | 197 | -51.1 | ||||
| 2001-06-01T00:00 | 12042 | 197 | -51.1 | ||||
| 2001-06-01T00:00 | 12047 | 197 | -51.1 | ||||
| 2001-06-01T00:00 | 12051 | 197 | -51.1 | 283 | 35 | ||
| 2001-06-01T00:00 | 12068 | 196 | -51.0 | ||||
| 2001-06-01T00:00 | 12075 | 196 | -51.0 | ||||
| 2001-06-01T00:00 | 12079 | 196 | -51.0 | ||||
| 2001-06-01T00:00 | 12102 | 195 | -50.4 | ||||
| 2001-06-01T00:00 | 12118 | 195 | -50.4 | ||||
| 2001-06-01T00:00 | 12123 | 194 | -50.2 | ||||
| 2001-06-01T00:00 | 12151 | 194 | -50.0 | ||||
| 2001-06-01T00:00 | 12161 | 193 | -49.9 | ||||
| 2001-06-01T00:00 | 12167 | 193 | -49.9 | ||||
| 2001-06-01T00:00 | 12193 | 192 | -50.0 | ||||
| 2001-06-01T00:00 | 12209 | 192 | -50.2 | ||||
| 2001-06-01T00:00 | 12214 | 192 | -50.2 | ||||
| 2001-06-01T00:00 | 12238 | 191 | -50.3 | ||||
| 2001-06-01T00:00 | 12248 | 191 | -50.4 | ||||
| 2001-06-01T00:00 | 12252 | 191 | -50.5 | ||||
| 2001-06-01T00:00 | 12277 | 190 | -50.3 | ||||
| 2001-06-01T00:00 | 12294 | 189 | -50.3 | ||||
| 2001-06-01T00:00 | 12299 | 189 | -50.2 | ||||
| 2001-06-01T00:00 | 12325 | 189 | -50.2 | ||||
| 2001-06-01T00:00 | 12334 | 188 | -50.4 | ||||
| 2001-06-01T00:00 | 12339 | 188 | -50.4 | ||||
| 2001-06-01T00:00 | 12349 | 188 | -50.5 | 280 | 29 | ||
| 2001-06-01T00:00 | 12364 | 187 | -50.5 | ||||
| 2001-06-01T00:00 | 12382 | 187 | -50.7 | ||||
| 2001-06-01T00:00 | 12388 | 187 | -50.8 | ||||
| 2001-06-01T00:00 | 12415 | 186 | -50.9 | ||||
| 2001-06-01T00:00 | 12425 | 186 | -51.0 | ||||
| 2001-06-01T00:00 | 12430 | 185 | -51.0 | ||||
| 2001-06-01T00:00 | 12454 | 185 | -50.8 | ||||
| 2001-06-01T00:00 | 12466 | 184 | -50.9 | ||||
| 2001-06-01T00:00 | 12470 | 184 | -50.8 | ||||
| 2001-06-01T00:00 | 12494 | 184 | -50.6 | ||||
| 2001-06-01T00:00 | 12505 | 183 | -50.8 | ||||
| 2001-06-01T00:00 | 12511 | 183 | -50.8 | ||||
| 2001-06-01T00:00 | 12535 | 182 | -51.0 | ||||
| 2001-06-01T00:00 | 12547 | 182 | -51.1 | ||||
| 2001-06-01T00:00 | 12551 | 182 | -51.1 | ||||
| 2001-06-01T00:00 | 12572 | 181 | -51.1 | ||||
| 2001-06-01T00:00 | 12582 | 181 | -51.2 | ||||
| 2001-06-01T00:00 | 12587 | 181 | -51.2 | ||||
| 2001-06-01T00:00 | 12610 | 180 | -51.3 | ||||
| 2001-06-01T00:00 | 12621 | 180 | -51.4 | ||||
| 2001-06-01T00:00 | 12625 | 180 | -51.4 | ||||
| 2001-06-01T00:00 | 12634 | 180 | -51.4 | 271 | 30 | ||
| 2001-06-01T00:00 | 12648 | 179 | -51.4 | ||||
| 2001-06-01T00:00 | 12660 | 179 | -51.5 | ||||
| 2001-06-01T00:00 | 12666 | 179 | -51.5 | ||||
| 2001-06-01T00:00 | 12693 | 178 | -51.5 | ||||
| 2001-06-01T00:00 | 12702 | 178 | -51.7 | ||||
| 2001-06-01T00:00 | 12712 | 178 | -51.8 | ||||
| 2001-06-01T00:00 | 12736 | 177 | -51.6 | ||||
| 2001-06-01T00:00 | 12746 | 177 | -51.7 | ||||
| 2001-06-01T00:00 | 12752 | 177 | -51.8 | ||||
| 2001-06-01T00:00 | 12775 | 176 | -51.8 | ||||
| 2001-06-01T00:00 | 12783 | 176 | -51.7 | ||||
| 2001-06-01T00:00 | 12792 | 175 | -51.8 | ||||
| 2001-06-01T00:00 | 12815 | 175 | -51.8 | ||||
| 2001-06-01T00:00 | 12825 | 175 | -51.7 | ||||
| 2001-06-01T00:00 | 12831 | 174 | -51.7 | ||||
| 2001-06-01T00:00 | 12855 | 174 | -51.7 | ||||
| 2001-06-01T00:00 | 12864 | 174 | -51.7 | ||||
| 2001-06-01T00:00 | 12872 | 173 | -51.7 | ||||
| 2001-06-01T00:00 | 12897 | 173 | -51.6 | ||||
| 2001-06-01T00:00 | 12908 | 172 | -51.7 | ||||
| 2001-06-01T00:00 | 12914 | 172 | -51.6 | ||||
| 2001-06-01T00:00 | 12929 | 172 | -51.5 | 283 | 28 | ||
| 2001-06-01T00:00 | 12939 | 172 | -51.4 | ||||
| 2001-06-01T00:00 | 12947 | 171 | -51.1 | ||||
| 2001-06-01T00:00 | 12951 | 171 | -51.2 | ||||
| 2001-06-01T00:00 | 12973 | 171 | -51.1 | ||||
| 2001-06-01T00:00 | 12987 | 170 | -51.2 | ||||
| 2001-06-01T00:00 | 12992 | 170 | -51.3 | ||||
| 2001-06-01T00:00 | 13016 | 169 | -51.4 | ||||
| 2001-06-01T00:00 | 13025 | 169 | -51.5 | ||||
| 2001-06-01T00:00 | 13030 | 169 | -51.6 | ||||
| 2001-06-01T00:00 | 13053 | 169 | -51.6 | ||||
| 2001-06-01T00:00 | 13068 | 168 | -51.8 | ||||
| 2001-06-01T00:00 | 13073 | 168 | -51.8 | ||||
| 2001-06-01T00:00 | 13101 | 167 | -51.9 | ||||
| 2001-06-01T00:00 | 13114 | 167 | -52.0 | ||||
| 2001-06-01T00:00 | 13121 | 167 | -52.0 | ||||
| 2001-06-01T00:00 | 13150 | 166 | -52.0 | ||||
| 2001-06-01T00:00 | 13163 | 166 | -52.2 | ||||
| 2001-06-01T00:00 | 13168 | 166 | -52.3 | ||||
| 2001-06-01T00:00 | 13191 | 165 | -52.2 | ||||
| 2001-06-01T00:00 | 13202 | 165 | -52.3 | ||||
| 2001-06-01T00:00 | 13207 | 165 | -52.3 | ||||
| 2001-06-01T00:00 | 13226 | 164 | -52.4 | 275 | 27 | ||
| 2001-06-01T00:00 | 13231 | 164 | -52.4 | ||||
| 2001-06-01T00:00 | 13240 | 164 | -52.5 | ||||
| 2001-06-01T00:00 | 13249 | 163 | -52.5 | ||||
| 2001-06-01T00:00 | 13275 | 163 | -52.5 | ||||
| 2001-06-01T00:00 | 13286 | 163 | -52.5 | ||||
| 2001-06-01T00:00 | 13292 | 162 | -52.5 | ||||
| 2001-06-01T00:00 | 13319 | 162 | -52.5 | ||||
| 2001-06-01T00:00 | 13327 | 162 | -52.7 | ||||
| 2001-06-01T00:00 | 13336 | 161 | -52.7 | ||||
| 2001-06-01T00:00 | 13359 | 161 | -52.7 | ||||
| 2001-06-01T00:00 | 13367 | 161 | -52.8 | ||||
| 2001-06-01T00:00 | 13372 | 160 | -52.8 | ||||
| 2001-06-01T00:00 | 13396 | 160 | -52.8 | ||||
| 2001-06-01T00:00 | 13407 | 160 | -52.9 | ||||
| 2001-06-01T00:00 | 13412 | 159 | -52.9 | ||||
| 2001-06-01T00:00 | 13439 | 159 | -53.0 | ||||
| 2001-06-01T00:00 | 13453 | 158 | -53.1 | ||||
| 2001-06-01T00:00 | 13458 | 158 | -53.1 | ||||
| 2001-06-01T00:00 | 13484 | 158 | -53.2 | ||||
| 2001-06-01T00:00 | 13495 | 157 | -53.3 | ||||
| 2001-06-01T00:00 | 13500 | 157 | -53.3 | ||||
| 2001-06-01T00:00 | 13527 | 157 | -53.3 | 277 | 24 | ||
| 2001-06-01T00:00 | 13542 | 156 | -53.4 | ||||
| 2001-06-01T00:00 | 13548 | 156 | -53.5 | ||||
| 2001-06-01T00:00 | 13574 | 155 | -53.5 | ||||
| 2001-06-01T00:00 | 13585 | 155 | -53.7 | ||||
| 2001-06-01T00:00 | 13591 | 155 | -53.7 | ||||
| 2001-06-01T00:00 | 13620 | 154 | -53.3 | ||||
| 2001-06-01T00:00 | 13632 | 154 | -53.5 | ||||
| 2001-06-01T00:00 | 13645 | 154 | -53.2 | ||||
| 2001-06-01T00:00 | 13673 | 153 | -53.4 | ||||
| 2001-06-01T00:00 | 13683 | 153 | -53.5 | ||||
| 2001-06-01T00:00 | 13688 | 153 | -53.5 | ||||
| 2001-06-01T00:00 | 13711 | 152 | -53.6 | ||||
| 2001-06-01T00:00 | 13720 | 152 | -53.4 | ||||
| 2001-06-01T00:00 | 13729 | 152 | -53.5 | ||||
| 2001-06-01T00:00 | 13754 | 151 | -53.4 | ||||
| 2001-06-01T00:00 | 13765 | 151 | -53.5 | ||||
| 2001-06-01T00:00 | 13770 | 151 | -53.4 | ||||
| 2001-06-01T00:00 | 13798 | 150 | -53.4 | ||||
| 2001-06-01T00:00 | 13803 | 150 | -53.5 | ||||
| 2001-06-01T00:00 | 13808 | 150 | -53.5 | ||||
| 2001-06-01T00:00 | 13813 | 150 | -53.5 | ||||
| 2001-06-01T00:00 | 13837 | 149 | -53.5 | ||||
| 2001-06-01T00:00 | 13841 | 149 | -53.5 | 278 | 23 | ||
| 2001-06-01T00:00 | 13850 | 149 | -53.5 | ||||
| 2001-06-01T00:00 | 13854 | 149 | -53.5 | ||||
| 2001-06-01T00:00 | 13879 | 148 | -53.6 | ||||
| 2001-06-01T00:00 | 13890 | 148 | -53.8 | ||||
| 2001-06-01T00:00 | 13896 | 148 | -53.8 | ||||
| 2001-06-01T00:00 | 13922 | 147 | -53.9 | ||||
| 2001-06-01T00:00 | 13931 | 147 | -54.0 | ||||
| 2001-06-01T00:00 | 13939 | 147 | -54.0 | ||||
| 2001-06-01T00:00 | 13962 | 146 | -54.0 | ||||
| 2001-06-01T00:00 | 13972 | 146 | -54.2 | ||||
| 2001-06-01T00:00 | 13978 | 146 | -54.2 | ||||
| 2001-06-01T00:00 | 14002 | 145 | -54.1 | ||||
| 2001-06-01T00:00 | 14010 | 145 | -54.1 | ||||
| 2001-06-01T00:00 | 14018 | 145 | -54.1 | ||||
| 2001-06-01T00:00 | 14044 | 144 | -54.0 | ||||
| 2001-06-01T00:00 | 14057 | 144 | -54.2 | ||||
| 2001-06-01T00:00 | 14064 | 144 | -54.2 | ||||
| 2001-06-01T00:00 | 14092 | 143 | -54.2 | ||||
| 2001-06-01T00:00 | 14100 | 143 | -54.4 | ||||
| 2001-06-01T00:00 | 14104 | 143 | -54.4 | ||||
| 2001-06-01T00:00 | 14126 | 143 | -54.5 | ||||
| 2001-06-01T00:00 | 14136 | 142 | -54.5 | 274 | 21 | ||
| 2001-06-01T00:00 | 14141 | 142 | -54.6 | ||||
| 2001-06-01T00:00 | 14146 | 142 | -54.6 | ||||
| 2001-06-01T00:00 | 14170 | 142 | -54.6 | ||||
| 2001-06-01T00:00 | 14180 | 141 | -54.7 | ||||
| 2001-06-01T00:00 | 14185 | 141 | -54.8 | ||||
| 2001-06-01T00:00 | 14207 | 141 | -54.8 | ||||
| 2001-06-01T00:00 | 14215 | 141 | -54.9 | ||||
| 2001-06-01T00:00 | 14222 | 141 | -54.9 | ||||
| 2001-06-01T00:00 | 14243 | 140 | -55.0 | ||||
| 2001-06-01T00:00 | 14253 | 140 | -55.1 | ||||
| 2001-06-01T00:00 | 14258 | 140 | -55.1 | ||||
| 2001-06-01T00:00 | 14284 | 139 | -55.1 | ||||
| 2001-06-01T00:00 | 14296 | 139 | -55.2 | ||||
| 2001-06-01T00:00 | 14302 | 139 | -55.2 | ||||
| 2001-06-01T00:00 | 14330 | 138 | -55.2 | ||||
| 2001-06-01T00:00 | 14345 | 138 | -55.3 | ||||
| 2001-06-01T00:00 | 14351 | 138 | -55.3 | ||||
| 2001-06-01T00:00 | 14374 | 137 | -55.1 | ||||
| 2001-06-01T00:00 | 14382 | 137 | -55.1 | ||||
| 2001-06-01T00:00 | 14386 | 137 | -55.1 | ||||
| 2001-06-01T00:00 | 14407 | 137 | -55.0 | ||||
| 2001-06-01T00:00 | 14419 | 136 | -55.2 | 273 | 20 | ||
| 2001-06-01T00:00 | 14424 | 136 | -55.1 | ||||
| 2001-06-01T00:00 | 14445 | 136 | -54.9 | ||||
| 2001-06-01T00:00 | 14454 | 136 | -55.1 | ||||
| 2001-06-01T00:00 | 14458 | 135 | -55.1 | ||||
| 2001-06-01T00:00 | 14481 | 135 | -55.1 | ||||
| 2001-06-01T00:00 | 14491 | 135 | -55.1 | ||||
| 2001-06-01T00:00 | 14495 | 135 | -55.0 | ||||
| 2001-06-01T00:00 | 14518 | 134 | -54.9 | ||||
| 2001-06-01T00:00 | 14530 | 134 | -55.0 | ||||
| 2001-06-01T00:00 | 14534 | 134 | -55.0 | ||||
| 2001-06-01T00:00 | 14556 | 133 | -54.8 | ||||
| 2001-06-01T00:00 | 14566 | 133 | -54.9 | ||||
| 2001-06-01T00:00 | 14571 | 133 | -54.8 | ||||
| 2001-06-01T00:00 | 14594 | 133 | -54.8 | ||||
| 2001-06-01T00:00 | 14602 | 132 | -54.9 | ||||
| 2001-06-01T00:00 | 14610 | 132 | -54.9 | ||||
| 2001-06-01T00:00 | 14630 | 132 | -54.9 | ||||
| 2001-06-01T00:00 | 14638 | 132 | -55.0 | ||||
| 2001-06-01T00:00 | 14641 | 132 | -55.0 | ||||
| 2001-06-01T00:00 | 14663 | 131 | -54.9 | ||||
| 2001-06-01T00:00 | 14674 | 131 | -54.9 | ||||
| 2001-06-01T00:00 | 14679 | 131 | -54.9 | ||||
| 2001-06-01T00:00 | 14683 | 131 | -55.0 | 276 | 20 | ||
| 2001-06-01T00:00 | 14700 | 130 | -55.0 | ||||
| 2001-06-01T00:00 | 14707 | 130 | -54.9 | ||||
| 2001-06-01T00:00 | 14710 | 130 | -54.9 | ||||
| 2001-06-01T00:00 | 14728 | 130 | -54.5 | ||||
| 2001-06-01T00:00 | 14740 | 130 | -54.2 | ||||
| 2001-06-01T00:00 | 14745 | 129 | -54.1 | ||||
| 2001-06-01T00:00 | 14771 | 129 | -54.1 | ||||
| 2001-06-01T00:00 | 14779 | 129 | -54.2 | ||||
| 2001-06-01T00:00 | 14788 | 129 | -54.2 | ||||
| 2001-06-01T00:00 | 14808 | 128 | -54.1 | ||||
| 2001-06-01T00:00 | 14815 | 128 | -54.3 | ||||
| 2001-06-01T00:00 | 14819 | 128 | -54.3 | ||||
| 2001-06-01T00:00 | 14843 | 128 | -54.3 | ||||
| 2001-06-01T00:00 | 14856 | 127 | -54.5 | ||||
| 2001-06-01T00:00 | 14862 | 127 | -54.5 | ||||
| 2001-06-01T00:00 | 14890 | 127 | -54.5 | ||||
| 2001-06-01T00:00 | 14899 | 126 | -54.6 | ||||
| 2001-06-01T00:00 | 14907 | 126 | -54.6 | ||||
| 2001-06-01T00:00 | 14929 | 126 | -54.7 | ||||
| 2001-06-01T00:00 | 14938 | 126 | -54.8 | ||||
| 2001-06-01T00:00 | 14942 | 126 | -54.8 | ||||
| 2001-06-01T00:00 | 14953 | 125 | -54.8 | 276 | 19 | ||
| 2001-06-01T00:00 | 14969 | 125 | -54.8 | ||||
| 2001-06-01T00:00 | 14984 | 125 | -54.9 | ||||
| 2001-06-01T00:00 | 14991 | 125 | -55.0 | ||||
| 2001-06-01T00:00 | 15023 | 124 | -55.0 | ||||
| 2001-06-01T00:00 | 15033 | 124 | -55.2 | ||||
| 2001-06-01T00:00 | 15044 | 124 | -55.3 | ||||
| 2001-06-01T00:00 | 15073 | 123 | -55.5 | ||||
| 2001-06-01T00:00 | 15086 | 123 | -55.5 | ||||
| 2001-06-01T00:00 | 15092 | 123 | -55.5 | ||||
| 2001-06-01T00:00 | 15122 | 122 | -55.2 | ||||
| 2001-06-01T00:00 | 15133 | 122 | -55.3 | ||||
| 2001-06-01T00:00 | 15138 | 122 | -55.3 | ||||
| 2001-06-01T00:00 | 15162 | 121 | -55.2 | ||||
| 2001-06-01T00:00 | 15174 | 121 | -55.4 | ||||
| 2001-06-01T00:00 | 15177 | 121 | -55.4 | ||||
| 2001-06-01T00:00 | 15202 | 121 | -55.3 | ||||
| 2001-06-01T00:00 | 15214 | 120 | -55.4 | ||||
| 2001-06-01T00:00 | 15221 | 120 | -55.4 | ||||
| 2001-06-01T00:00 | 15252 | 120 | -55.1 | ||||
| 2001-06-01T00:00 | 15265 | 119 | -55.0 | ||||
| 2001-06-01T00:00 | 15272 | 119 | -54.8 | ||||
| 2001-06-01T00:00 | 15294 | 119 | -53.9 | 275 | 20 | ||
| 2001-06-01T00:00 | 15300 | 119 | -53.7 | ||||
| 2001-06-01T00:00 | 15313 | 118 | -53.9 | ||||
| 2001-06-01T00:00 | 15317 | 118 | -53.9 | ||||
| 2001-06-01T00:00 | 15342 | 118 | -54.2 | ||||
| 2001-06-01T00:00 | 15355 | 118 | -54.3 | ||||
| 2001-06-01T00:00 | 15361 | 118 | -54.4 | ||||
| 2001-06-01T00:00 | 15392 | 117 | -54.6 | ||||
| 2001-06-01T00:00 | 15405 | 117 | -54.8 | ||||
| 2001-06-01T00:00 | 15411 | 117 | -54.8 | ||||
| 2001-06-01T00:00 | 15438 | 116 | -55.0 | ||||
| 2001-06-01T00:00 | 15448 | 116 | -55.2 | ||||
| 2001-06-01T00:00 | 15457 | 116 | -55.2 | ||||
| 2001-06-01T00:00 | 15484 | 115 | -55.4 | ||||
| 2001-06-01T00:00 | 15498 | 115 | -55.7 | ||||
| 2001-06-01T00:00 | 15504 | 115 | -55.7 | ||||
| 2001-06-01T00:00 | 15536 | 114 | -55.9 | ||||
| 2001-06-01T00:00 | 15549 | 114 | -56.1 | ||||
| 2001-06-01T00:00 | 15555 | 114 | -56.1 | ||||
| 2001-06-01T00:00 | 15582 | 114 | -56.3 | ||||
| 2001-06-01T00:00 | 15591 | 113 | -56.5 | ||||
| 2001-06-01T00:00 | 15600 | 113 | -56.6 | ||||
| 2001-06-01T00:00 | 15629 | 113 | -56.8 | 274 | 21 | ||
| 2001-06-01T00:00 | 15644 | 112 | -57.1 | ||||
| 2001-06-01T00:00 | 15651 | 112 | -57.1 | ||||
| 2001-06-01T00:00 | 15688 | 112 | -57.3 | ||||
| 2001-06-01T00:00 | 15701 | 111 | -57.6 | ||||
| 2001-06-01T00:00 | 15708 | 111 | -57.6 | ||||
| 2001-06-01T00:00 | 15739 | 111 | -57.7 | ||||
| 2001-06-01T00:00 | 15751 | 111 | -57.9 | ||||
| 2001-06-01T00:00 | 15762 | 110 | -57.9 | ||||
| 2001-06-01T00:00 | 15789 | 110 | -57.9 | ||||
| 2001-06-01T00:00 | 15799 | 110 | -58.0 | ||||
| 2001-06-01T00:00 | 15804 | 110 | -58.0 | ||||
| 2001-06-01T00:00 | 15832 | 109 | -57.7 | ||||
| 2001-06-01T00:00 | 15844 | 109 | -57.7 | ||||
| 2001-06-01T00:00 | 15850 | 109 | -57.7 | ||||
| 2001-06-01T00:00 | 15877 | 108 | -57.5 | ||||
| 2001-06-01T00:00 | 15890 | 108 | -57.3 | ||||
| 2001-06-01T00:00 | 15895 | 108 | -57.3 | ||||
| 2001-06-01T00:00 | 15921 | 108 | -57.4 | ||||
| 2001-06-01T00:00 | 15934 | 107 | -57.7 | ||||
| 2001-06-01T00:00 | 15941 | 107 | -57.7 | ||||
| 2001-06-01T00:00 | 15972 | 107 | -57.9 | ||||
| 2001-06-01T00:00 | 15983 | 107 | -58.1 | 277 | 21 | ||
| 2001-06-01T00:00 | 15988 | 106 | -58.0 | ||||
| 2001-06-01T00:00 | 16013 | 106 | -58.0 | ||||
| 2001-06-01T00:00 | 16026 | 106 | -58.2 | ||||
| 2001-06-01T00:00 | 16030 | 106 | -58.2 | ||||
| 2001-06-01T00:00 | 16054 | 105 | -58.1 | ||||
| 2001-06-01T00:00 | 16065 | 105 | -58.2 | ||||
| 2001-06-01T00:00 | 16070 | 105 | -58.1 | ||||
| 2001-06-01T00:00 | 16098 | 105 | -58.1 | ||||
| 2001-06-01T00:00 | 16108 | 104 | -58.1 | ||||
| 2001-06-01T00:00 | 16114 | 104 | -58.2 | ||||
| 2001-06-01T00:00 | 16138 | 104 | -58.2 | ||||
| 2001-06-01T00:00 | 16150 | 104 | -58.3 | ||||
| 2001-06-01T00:00 | 16154 | 104 | -58.2 | ||||
| 2001-06-01T00:00 | 16178 | 103 | -58.0 | ||||
| 2001-06-01T00:00 | 16189 | 103 | -57.9 | ||||
| 2001-06-01T00:00 | 16195 | 103 | -57.9 | ||||
| 2001-06-01T00:00 | 16220 | 103 | -57.9 | ||||
| 2001-06-01T00:00 | 16228 | 102 | -58.0 | ||||
| 2001-06-01T00:00 | 16233 | 102 | -57.9 | ||||
| 2001-06-01T00:00 | 16255 | 102 | -57.9 | ||||
| 2001-06-01T00:00 | 16271 | 102 | -58.0 | ||||
| 2001-06-01T00:00 | 16276 | 102 | -57.9 | 284 | 16 | ||
| 2001-06-01T00:00 | 16302 | 101 | -57.9 | ||||
| 2001-06-01T00:00 | 16313 | 101 | -58.0 | ||||
| 2001-06-01T00:00 | 16318 | 101 | -58.0 | ||||
| 2001-06-01T00:00 | 16344 | 101 | -58.0 | ||||
| 2001-06-01T00:00 | 16354 | 100 | -58.1 | ||||
| 2001-06-01T00:00 | 16359 | 100 | -57.9 | ||||
| 2001-06-01T00:00 | 16380 | 100 | -57.6 | ||||
| 2001-06-01T00:00 | 16384 | 100 | -57.6 | ||||
| 2001-06-01T00:00 | 16387 | 100 | -57.7 | ||||
| 2001-06-01T00:00 | 16394 | 100 | -57.7 | ||||
| 2001-06-01T00:00 | 16419 | 99 | -57.8 | ||||
| 2001-06-01T00:00 | 16434 | 99 | -57.8 | ||||
| 2001-06-01T00:00 | 16442 | 99 | -57.8 | ||||
| 2001-06-01T00:00 | 16477 | 99 | -57.5 | ||||
| 2001-06-01T00:00 | 16489 | 98 | -57.8 | ||||
| 2001-06-01T00:00 | 16495 | 98 | -57.8 | ||||
| 2001-06-01T00:00 | 16522 | 98 | -57.8 | ||||
| 2001-06-01T00:00 | 16531 | 98 | -57.9 | ||||
| 2001-06-01T00:00 | 16535 | 98 | -57.9 | ||||
| 2001-06-01T00:00 | 16557 | 97 | -58.0 | ||||
| 2001-06-01T00:00 | 16572 | 97 | -58.0 | ||||
| 2001-06-01T00:00 | 16576 | 97 | -57.9 | ||||
| 2001-06-01T00:00 | 16586 | 97 | -57.8 | 286 | 14 | ||
| 2001-06-01T00:00 | 16601 | 97 | -57.8 | ||||
| 2001-06-01T00:00 | 16612 | 96 | -58.0 | ||||
| 2001-06-01T00:00 | 16617 | 96 | -58.0 | ||||
| 2001-06-01T00:00 | 16642 | 96 | -58.0 | ||||
| 2001-06-01T00:00 | 16652 | 96 | -58.1 | ||||
| 2001-06-01T00:00 | 16658 | 96 | -58.1 | ||||
| 2001-06-01T00:00 | 16681 | 95 | -58.3 | ||||
| 2001-06-01T00:00 | 16689 | 95 | -58.5 | ||||
| 2001-06-01T00:00 | 16697 | 95 | -58.5 | ||||
| 2001-06-01T00:00 | 16718 | 95 | -58.5 | ||||
| 2001-06-01T00:00 | 16727 | 95 | -58.6 | ||||
| 2001-06-01T00:00 | 16731 | 95 | -58.6 | ||||
| 2001-06-01T00:00 | 16756 | 94 | -58.7 | ||||
| 2001-06-01T00:00 | 16768 | 94 | -58.9 | ||||
| 2001-06-01T00:00 | 16774 | 94 | -58.9 | ||||
| 2001-06-01T00:00 | 16799 | 94 | -59.0 | ||||
| 2001-06-01T00:00 | 16806 | 94 | -59.0 | ||||
| 2001-06-01T00:00 | 16814 | 93 | -59.0 | ||||
| 2001-06-01T00:00 | 16829 | 93 | -58.7 | ||||
| 2001-06-01T00:00 | 16843 | 93 | -58.7 | ||||
| 2001-06-01T00:00 | 16848 | 93 | -58.7 | ||||
| 2001-06-01T00:00 | 16868 | 93 | -58.4 | 298 | 15 | ||
| 2001-06-01T00:00 | 16873 | 93 | -58.4 | ||||
| 2001-06-01T00:00 | 16883 | 92 | -57.9 | ||||
| 2001-06-01T00:00 | 16889 | 92 | -57.8 | ||||
| 2001-06-01T00:00 | 16915 | 92 | -57.8 | ||||
| 2001-06-01T00:00 | 16925 | 92 | -57.9 | ||||
| 2001-06-01T00:00 | 16930 | 92 | -57.9 | ||||
| 2001-06-01T00:00 | 16953 | 91 | -56.9 | ||||
| 2001-06-01T00:00 | 16961 | 91 | -56.9 | ||||
| 2001-06-01T00:00 | 16970 | 91 | -56.9 | ||||
| 2001-06-01T00:00 | 16993 | 91 | -57.0 | ||||
| 2001-06-01T00:00 | 17004 | 91 | -57.1 | ||||
| 2001-06-01T00:00 | 17010 | 91 | -57.2 | ||||
| 2001-06-01T00:00 | 17035 | 90 | -57.0 | ||||
| 2001-06-01T00:00 | 17044 | 90 | -57.0 | ||||
| 2001-06-01T00:00 | 17049 | 90 | -57.0 | ||||
| 2001-06-01T00:00 | 17072 | 90 | -57.0 | ||||
| 2001-06-01T00:00 | 17082 | 90 | -57.2 | ||||
| 2001-06-01T00:00 | 17087 | 89 | -57.2 | ||||
| 2001-06-01T00:00 | 17106 | 89 | -57.3 | ||||
| 2001-06-01T00:00 | 17112 | 89 | -57.5 | ||||
| 2001-06-01T00:00 | 17114 | 89 | -57.5 | ||||
| 2001-06-01T00:00 | 17135 | 89 | -57.2 | ||||
| 2001-06-01T00:00 | 17147 | 89 | -57.2 | 308 | 13 | ||
| 2001-06-01T00:00 | 17153 | 89 | -57.2 | ||||
| 2001-06-01T00:00 | 17159 | 88 | -57.2 | ||||
| 2001-06-01T00:00 | 17188 | 88 | -57.1 | ||||
| 2001-06-01T00:00 | 17198 | 88 | -57.2 | ||||
| 2001-06-01T00:00 | 17203 | 88 | -57.2 | ||||
| 2001-06-01T00:00 | 17228 | 87 | -57.3 | ||||
| 2001-06-01T00:00 | 17237 | 87 | -57.3 | ||||
| 2001-06-01T00:00 | 17242 | 87 | -57.3 | ||||
| 2001-06-01T00:00 | 17270 | 87 | -57.1 | ||||
| 2001-06-01T00:00 | 17285 | 87 | -57.2 | ||||
| 2001-06-01T00:00 | 17292 | 87 | -57.1 | ||||
| 2001-06-01T00:00 | 17325 | 86 | -56.9 | ||||
| 2001-06-01T00:00 | 17337 | 86 | -56.7 | ||||
| 2001-06-01T00:00 | 17348 | 86 | -56.6 | ||||
| 2001-06-01T00:00 | 17370 | 86 | -56.5 | ||||
| 2001-06-01T00:00 | 17381 | 85 | -56.7 | ||||
| 2001-06-01T00:00 | 17385 | 85 | -56.7 | ||||
| 2001-06-01T00:00 | 17407 | 85 | -56.7 | ||||
| 2001-06-01T00:00 | 17418 | 85 | -56.8 | ||||
| 2001-06-01T00:00 | 17423 | 85 | -56.8 | ||||
| 2001-06-01T00:00 | 17450 | 84 | -56.9 | ||||
| 2001-06-01T00:00 | 17460 | 84 | -57.0 | ||||
| 2001-06-01T00:00 | 17466 | 84 | -57.0 | ||||
| 2001-06-01T00:00 | 17470 | 84 | -57.0 | 292 | 7 | ||
| 2001-06-01T00:00 | 17489 | 84 | -57.0 | ||||
| 2001-06-01T00:00 | 17497 | 84 | -57.0 | ||||
| 2001-06-01T00:00 | 17500 | 84 | -57.0 | ||||
| 2001-06-01T00:00 | 17529 | 83 | -56.9 | ||||
| 2001-06-01T00:00 | 17545 | 83 | -57.1 | ||||
| 2001-06-01T00:00 | 17554 | 83 | -57.1 | ||||
| 2001-06-01T00:00 | 17590 | 83 | -57.1 | ||||
| 2001-06-01T00:00 | 17607 | 82 | -57.3 | ||||
| 2001-06-01T00:00 | 17612 | 82 | -57.3 | ||||
| 2001-06-01T00:00 | 17639 | 82 | -57.4 | ||||
| 2001-06-01T00:00 | 17650 | 82 | -57.6 | ||||
| 2001-06-01T00:00 | 17656 | 82 | -57.5 | ||||
| 2001-06-01T00:00 | 17685 | 81 | -57.4 | ||||
| 2001-06-01T00:00 | 17697 | 81 | -57.5 | ||||
| 2001-06-01T00:00 | 17703 | 81 | -57.6 | ||||
| 2001-06-01T00:00 | 17733 | 81 | -57.7 | ||||
| 2001-06-01T00:00 | 17745 | 81 | -58.0 | ||||
| 2001-06-01T00:00 | 17751 | 81 | -58.0 | ||||
| 2001-06-01T00:00 | 17778 | 80 | -58.0 | ||||
| 2001-06-01T00:00 | 17788 | 80 | -58.1 | ||||
| 2001-06-01T00:00 | 17793 | 80 | -58.2 | ||||
| 2001-06-01T00:00 | 17812 | 80 | -58.0 | 260 | 4 | ||
| 2001-06-01T00:00 | 17817 | 80 | -58.0 | ||||
| 2001-06-01T00:00 | 17828 | 80 | -58.2 | ||||
| 2001-06-01T00:00 | 17838 | 79 | -58.2 | ||||
| 2001-06-01T00:00 | 17866 | 79 | -58.2 | ||||
| 2001-06-01T00:00 | 17877 | 79 | -58.4 | ||||
| 2001-06-01T00:00 | 17883 | 79 | -58.4 | ||||
| 2001-06-01T00:00 | 17908 | 79 | -58.4 | ||||
| 2001-06-01T00:00 | 17915 | 78 | -58.6 | ||||
| 2001-06-01T00:00 | 17919 | 78 | -58.6 | ||||
| 2001-06-01T00:00 | 17942 | 78 | -58.7 | ||||
| 2001-06-01T00:00 | 17954 | 78 | -58.9 | ||||
| 2001-06-01T00:00 | 17960 | 78 | -58.9 | ||||
| 2001-06-01T00:00 | 17989 | 78 | -59.0 | ||||
| 2001-06-01T00:00 | 18000 | 77 | -59.2 | ||||
| 2001-06-01T00:00 | 18006 | 77 | -59.2 | ||||
| 2001-06-01T00:00 | 18029 | 77 | -59.4 | ||||
| 2001-06-01T00:00 | 18035 | 77 | -59.6 | ||||
| 2001-06-01T00:00 | 18041 | 77 | -59.6 | ||||
| 2001-06-01T00:00 | 18060 | 77 | -59.8 | ||||
| 2001-06-01T00:00 | 18070 | 77 | -60.0 | ||||
| 2001-06-01T00:00 | 18075 | 76 | -60.0 | ||||
| 2001-06-01T00:00 | 18101 | 76 | -60.1 | ||||
| 2001-06-01T00:00 | 18107 | 76 | -60.2 | 272 | 5 | ||
| 2001-06-01T00:00 | 18112 | 76 | -60.3 | ||||
| 2001-06-01T00:00 | 18118 | 76 | -60.3 | ||||
| 2001-06-01T00:00 | 18141 | 76 | -60.4 | ||||
| 2001-06-01T00:00 | 18147 | 76 | -60.6 | ||||
| 2001-06-01T00:00 | 18151 | 76 | -60.5 | ||||
| 2001-06-01T00:00 | 18171 | 75 | -60.2 | ||||
| 2001-06-01T00:00 | 18181 | 75 | -60.2 | ||||
| 2001-06-01T00:00 | 18186 | 75 | -60.0 | ||||
| 2001-06-01T00:00 | 18207 | 75 | -59.3 | ||||
| 2001-06-01T00:00 | 18213 | 75 | -59.2 | ||||
| 2001-06-01T00:00 | 18219 | 75 | -59.2 | ||||
| 2001-06-01T00:00 | 18234 | 75 | -58.7 | ||||
| 2001-06-01T00:00 | 18249 | 74 | -58.8 | ||||
| 2001-06-01T00:00 | 18254 | 74 | -58.8 | ||||
| 2001-06-01T00:00 | 18279 | 74 | -58.8 | ||||
| 2001-06-01T00:00 | 18289 | 74 | -59.0 | ||||
| 2001-06-01T00:00 | 18293 | 74 | -59.0 | ||||
| 2001-06-01T00:00 | 18317 | 74 | -59.0 | ||||
| 2001-06-01T00:00 | 18326 | 73 | -59.2 | ||||
| 2001-06-01T00:00 | 18331 | 73 | -59.2 | ||||
| 2001-06-01T00:00 | 18356 | 73 | -59.3 | ||||
| 2001-06-01T00:00 | 18367 | 73 | -59.5 | ||||
| 2001-06-01T00:00 | 18372 | 73 | -59.5 | ||||
| 2001-06-01T00:00 | 18377 | 73 | -59.4 | 280 | 8 | ||
| 2001-06-01T00:00 | 18397 | 73 | -59.3 | ||||
| 2001-06-01T00:00 | 18407 | 73 | -59.5 | ||||
| 2001-06-01T00:00 | 18411 | 72 | -59.4 | ||||
| 2001-06-01T00:00 | 18434 | 72 | -59.4 | ||||
| 2001-06-01T00:00 | 18442 | 72 | -59.5 | ||||
| 2001-06-01T00:00 | 18450 | 72 | -59.5 | ||||
| 2001-06-01T00:00 | 18468 | 72 | -58.8 | ||||
| 2001-06-01T00:00 | 18486 | 72 | -58.8 | ||||
| 2001-06-01T00:00 | 18492 | 72 | -58.7 | ||||
| 2001-06-01T00:00 | 18521 | 71 | -58.0 | ||||
| 2001-06-01T00:00 | 18532 | 71 | -58.1 | ||||
| 2001-06-01T00:00 | 18538 | 71 | -58.0 | ||||
| 2001-06-01T00:00 | 18565 | 71 | -57.8 | ||||
| 2001-06-01T00:00 | 18576 | 71 | -57.8 | ||||
| 2001-06-01T00:00 | 18582 | 71 | -57.9 | ||||
| 2001-06-01T00:00 | 18609 | 70 | -57.7 | ||||
| 2001-06-01T00:00 | 18619 | 70 | -57.7 | ||||
| 2001-06-01T00:00 | 18625 | 70 | -57.7 | ||||
| 2001-06-01T00:00 | 18630 | 70 | -57.7 | ||||
| 2001-06-01T00:00 | 18649 | 70 | -57.4 | ||||
| 2001-06-01T00:00 | 18657 | 70 | -57.7 | ||||
| 2001-06-01T00:00 | 18661 | 70 | -57.7 | ||||
| 2001-06-01T00:00 | 18684 | 69 | -57.3 | 302 | 8 | ||
| 2001-06-01T00:00 | 18689 | 69 | -57.2 | ||||
| 2001-06-01T00:00 | 18704 | 69 | -57.3 | ||||
| 2001-06-01T00:00 | 18712 | 69 | -57.3 | ||||
| 2001-06-01T00:00 | 18741 | 69 | -57.4 | ||||
| 2001-06-01T00:00 | 18748 | 69 | -57.7 | ||||
| 2001-06-01T00:00 | 18751 | 69 | -57.7 | ||||
| 2001-06-01T00:00 | 18771 | 68 | -57.7 | ||||
| 2001-06-01T00:00 | 18781 | 68 | -57.7 | ||||
| 2001-06-01T00:00 | 18791 | 68 | -57.7 | ||||
| 2001-06-01T00:00 | 18813 | 68 | -57.5 | ||||
| 2001-06-01T00:00 | 18828 | 68 | -57.6 | ||||
| 2001-06-01T00:00 | 18842 | 68 | -57.6 | ||||
| 2001-06-01T00:00 | 18872 | 67 | -57.7 | ||||
| 2001-06-01T00:00 | 18880 | 67 | -57.8 | ||||
| 2001-06-01T00:00 | 18884 | 67 | -57.9 | ||||
| 2001-06-01T00:00 | 18905 | 67 | -58.0 | ||||
| 2001-06-01T00:00 | 18915 | 67 | -58.2 | ||||
| 2001-06-01T00:00 | 18919 | 67 | -58.2 | ||||
| 2001-06-01T00:00 | 18946 | 67 | -58.2 | ||||
| 2001-06-01T00:00 | 18958 | 66 | -58.3 | ||||
| 2001-06-01T00:00 | 18964 | 66 | -58.3 | ||||
| 2001-06-01T00:00 | 18991 | 66 | -58.4 | ||||
| 2001-06-01T00:00 | 19000 | 66 | -58.5 | 333 | 6 | ||
| 2001-06-01T00:00 | 19004 | 66 | -58.5 | ||||
| 2001-06-01T00:00 | 19026 | 66 | -58.6 | ||||
| 2001-06-01T00:00 | 19035 | 66 | -58.7 | ||||
| 2001-06-01T00:00 | 19040 | 66 | -58.5 | ||||
| 2001-06-01T00:00 | 19062 | 65 | -57.7 | ||||
| 2001-06-01T00:00 | 19072 | 65 | -57.6 | ||||
| 2001-06-01T00:00 | 19076 | 65 | -57.4 | ||||
| 2001-06-01T00:00 | 19104 | 65 | -56.8 | ||||
| 2001-06-01T00:00 | 19117 | 65 | -56.8 | ||||
| 2001-06-01T00:00 | 19124 | 65 | -56.8 | ||||
| 2001-06-01T00:00 | 19156 | 64 | -56.9 | ||||
| 2001-06-01T00:00 | 19167 | 64 | -57.1 | ||||
| 2001-06-01T00:00 | 19173 | 64 | -57.2 | ||||
| 2001-06-01T00:00 | 19201 | 64 | -57.2 | ||||
| 2001-06-01T00:00 | 19212 | 64 | -57.4 | ||||
| 2001-06-01T00:00 | 19217 | 64 | -57.5 | ||||
| 2001-06-01T00:00 | 19248 | 63 | -57.5 | ||||
| 2001-06-01T00:00 | 19263 | 63 | -57.7 | ||||
| 2001-06-01T00:00 | 19270 | 63 | -57.8 | ||||
| 2001-06-01T00:00 | 19303 | 63 | -58.0 | ||||
| 2001-06-01T00:00 | 19315 | 63 | -58.2 | ||||
| 2001-06-01T00:00 | 19321 | 63 | -58.2 | ||||
| 2001-06-01T00:00 | 19336 | 63 | -58.3 | 349 | 4 | ||
| 2001-06-01T00:00 | 19346 | 62 | -58.3 | ||||
| 2001-06-01T00:00 | 19354 | 62 | -58.5 | ||||
| 2001-06-01T00:00 | 19361 | 62 | -58.6 | ||||
| 2001-06-01T00:00 | 19379 | 62 | -58.6 | ||||
| 2001-06-01T00:00 | 19391 | 62 | -58.7 | ||||
| 2001-06-01T00:00 | 19404 | 62 | -58.8 | ||||
| 2001-06-01T00:00 | 19428 | 62 | -58.8 | ||||
| 2001-06-01T00:00 | 19445 | 62 | -58.9 | ||||
| 2001-06-01T00:00 | 19450 | 61 | -58.9 | ||||
| 2001-06-01T00:00 | 19477 | 61 | -59.0 | ||||
| 2001-06-01T00:00 | 19487 | 61 | -59.1 | ||||
| 2001-06-01T00:00 | 19492 | 61 | -59.2 | ||||
| 2001-06-01T00:00 | 19518 | 61 | -58.9 | ||||
| 2001-06-01T00:00 | 19530 | 61 | -58.9 | ||||
| 2001-06-01T00:00 | 19537 | 61 | -58.9 | ||||
| 2001-06-01T00:00 | 19565 | 60 | -58.8 | ||||
| 2001-06-01T00:00 | 19576 | 60 | -58.8 | ||||
| 2001-06-01T00:00 | 19581 | 60 | -58.8 | ||||
| 2001-06-01T00:00 | 19606 | 60 | -58.6 | ||||
| 2001-06-01T00:00 | 19615 | 60 | -58.8 | ||||
| 2001-06-01T00:00 | 19620 | 60 | -58.8 | ||||
| 2001-06-01T00:00 | 19647 | 60 | -58.7 | ||||
| 2001-06-01T00:00 | 19653 | 60 | -58.8 | 336 | 5 | ||
| 2001-06-01T00:00 | 19659 | 59 | -58.8 | ||||
| 2001-06-01T00:00 | 19665 | 59 | -58.8 | ||||
| 2001-06-01T00:00 | 19694 | 59 | -59.0 | ||||
| 2001-06-01T00:00 | 19705 | 59 | -59.1 | ||||
| 2001-06-01T00:00 | 19710 | 59 | -59.2 | ||||
| 2001-06-01T00:00 | 19739 | 59 | -58.9 | ||||
| 2001-06-01T00:00 | 19751 | 59 | -58.9 | ||||
| 2001-06-01T00:00 | 19757 | 59 | -58.9 | ||||
| 2001-06-01T00:00 | 19789 | 58 | -58.8 | ||||
| 2001-06-01T00:00 | 19803 | 58 | -58.8 | ||||
| 2001-06-01T00:00 | 19810 | 58 | -58.8 | ||||
| 2001-06-01T00:00 | 19840 | 58 | -58.6 | ||||
| 2001-06-01T00:00 | 19849 | 58 | -58.1 | ||||
| 2001-06-01T00:00 | 19854 | 58 | -58.0 | ||||
| 2001-06-01T00:00 | 19877 | 57 | -57.6 | ||||
| 2001-06-01T00:00 | 19887 | 57 | -57.6 | ||||
| 2001-06-01T00:00 | 19892 | 57 | -57.5 | ||||
| 2001-06-01T00:00 | 19920 | 57 | -57.5 | ||||
| 2001-06-01T00:00 | 19933 | 57 | -57.7 | ||||
| 2001-06-01T00:00 | 19940 | 57 | -57.7 | ||||
| 2001-06-01T00:00 | 19973 | 57 | -57.8 | ||||
| 2001-06-01T00:00 | 19986 | 56 | -57.9 | ||||
| 2001-06-01T00:00 | 19993 | 56 | -57.9 | ||||
| 2001-06-01T00:00 | 20003 | 56 | -58.0 | 328 | 5 | ||
| 2001-06-01T00:00 | 20018 | 56 | -58.0 | ||||
| 2001-06-01T00:00 | 20023 | 56 | -58.0 | ||||
| 2001-06-01T00:00 | 20026 | 56 | -57.9 | ||||
| 2001-06-01T00:00 | 20045 | 56 | -57.6 | ||||
| 2001-06-01T00:00 | 20058 | 56 | -57.7 | ||||
| 2001-06-01T00:00 | 20064 | 56 | -57.7 | ||||
| 2001-06-01T00:00 | 20093 | 55 | -57.8 | ||||
| 2001-06-01T00:00 | 20103 | 55 | -58.0 | ||||
| 2001-06-01T00:00 | 20109 | 55 | -57.8 | ||||
| 2001-06-01T00:00 | 20135 | 55 | -57.6 | ||||
| 2001-06-01T00:00 | 20144 | 55 | -57.7 | ||||
| 2001-06-01T00:00 | 20149 | 55 | -57.7 | ||||
| 2001-06-01T00:00 | 20175 | 55 | -57.8 | ||||
| 2001-06-01T00:00 | 20188 | 55 | -57.8 | ||||
| 2001-06-01T00:00 | 20194 | 55 | -57.6 | ||||
| 2001-06-01T00:00 | 20223 | 54 | -57.6 | ||||
| 2001-06-01T00:00 | 20233 | 54 | -57.5 | ||||
| 2001-06-01T00:00 | 20239 | 54 | -57.5 | ||||
| 2001-06-01T00:00 | 20265 | 54 | -57.5 | ||||
| 2001-06-01T00:00 | 20276 | 54 | -57.5 | ||||
| 2001-06-01T00:00 | 20282 | 54 | -57.4 | ||||
| 2001-06-01T00:00 | 20309 | 54 | -57.2 | ||||
| 2001-06-01T00:00 | 20314 | 54 | -57.2 | 336 | 5 | ||
| 2001-06-01T00:00 | 20320 | 54 | -57.3 | ||||
| 2001-06-01T00:00 | 20325 | 53 | -57.2 | ||||
| 2001-06-01T00:00 | 20347 | 53 | -56.8 | ||||
| 2001-06-01T00:00 | 20353 | 53 | -56.8 | ||||
| 2001-06-01T00:00 | 20356 | 53 | -56.8 | ||||
| 2001-06-01T00:00 | 20382 | 53 | -56.5 | ||||
| 2001-06-01T00:00 | 20399 | 53 | -56.6 | ||||
| 2001-06-01T00:00 | 20408 | 53 | -56.6 | ||||
| 2001-06-01T00:00 | 20444 | 52 | -56.7 | ||||
| 2001-06-01T00:00 | 20452 | 52 | -56.9 | ||||
| 2001-06-01T00:00 | 20457 | 52 | -56.9 | ||||
| 2001-06-01T00:00 | 20479 | 52 | -57.1 | ||||
| 2001-06-01T00:00 | 20487 | 52 | -57.2 | ||||
| 2001-06-01T00:00 | 20492 | 52 | -57.2 | ||||
| 2001-06-01T00:00 | 20514 | 52 | -57.3 | ||||
| 2001-06-01T00:00 | 20523 | 52 | -57.5 | ||||
| 2001-06-01T00:00 | 20528 | 52 | -57.5 | ||||
| 2001-06-01T00:00 | 20553 | 52 | -57.5 | ||||
| 2001-06-01T00:00 | 20564 | 51 | -57.3 | ||||
| 2001-06-01T00:00 | 20570 | 51 | -57.0 | ||||
| 2001-06-01T00:00 | 20600 | 51 | -56.9 | ||||
| 2001-06-01T00:00 | 20612 | 51 | -56.9 | ||||
| 2001-06-01T00:00 | 20619 | 51 | -56.9 | ||||
| 2001-06-01T00:00 | 20631 | 51 | -56.9 | 353 | 4 | ||
| 2001-06-01T00:00 | 20649 | 51 | -56.8 | ||||
| 2001-06-01T00:00 | 20660 | 51 | -56.8 | ||||
| 2001-06-01T00:00 | 20666 | 51 | -56.8 | ||||
| 2001-06-01T00:00 | 20692 | 50 | -56.8 | ||||
| 2001-06-01T00:00 | 20702 | 50 | -56.9 | ||||
| 2001-06-01T00:00 | 20706 | 50 | -56.8 | ||||
| 2001-06-01T00:00 | 20733 | 50 | -56.6 | ||||
| 2001-06-01T00:00 | 20745 | 50 | -56.7 | ||||
| 2001-06-01T00:00 | 20751 | 50 | -56.6 | ||||
| 2001-06-01T00:00 | 20776 | 50 | -56.6 | ||||
| 2001-06-01T00:00 | 20789 | 50 | -56.7 | ||||
| 2001-06-01T00:00 | 20801 | 50 | -56.6 | ||||
| 2001-06-01T00:00 | 20825 | 49 | -56.3 | ||||
| 2001-06-01T00:00 | 20836 | 49 | -56.4 | ||||
| 2001-06-01T00:00 | 20842 | 49 | -56.3 | ||||
| 2001-06-01T00:00 | 20866 | 49 | -56.3 | ||||
| 2001-06-01T00:00 | 20873 | 49 | -56.4 | ||||
| 2001-06-01T00:00 | 20877 | 49 | -56.4 | ||||
| 2001-06-01T00:00 | 20902 | 49 | -56.4 | ||||
| 2001-06-01T00:00 | 20917 | 49 | -56.6 | ||||
| 2001-06-01T00:00 | 20924 | 49 | -56.5 | ||||
| 2001-06-01T00:00 | 20955 | 48 | -56.3 | ||||
| 2001-06-01T00:00 | 20964 | 48 | -56.2 | 348 | 3 | ||
| 2001-06-01T00:00 | 20968 | 48 | -56.2 | ||||
| 2001-06-01T00:00 | 20992 | 48 | -56.2 | ||||
| 2001-06-01T00:00 | 21002 | 48 | -56.4 | ||||
| 2001-06-01T00:00 | 21007 | 48 | -56.4 | ||||
| 2001-06-01T00:00 | 21031 | 48 | -56.3 | ||||
| 2001-06-01T00:00 | 21040 | 48 | -56.2 | ||||
| 2001-06-01T00:00 | 21044 | 48 | -56.1 | ||||
| 2001-06-01T00:00 | 21066 | 48 | -55.7 | ||||
| 2001-06-01T00:00 | 21074 | 48 | -55.4 | ||||
| 2001-06-01T00:00 | 21079 | 47 | -55.3 | ||||
| 2001-06-01T00:00 | 21106 | 47 | -55.3 | ||||
| 2001-06-01T00:00 | 21120 | 47 | -55.4 | ||||
| 2001-06-01T00:00 | 21127 | 47 | -55.3 | ||||
| 2001-06-01T00:00 | 21153 | 47 | -55.2 | ||||
| 2001-06-01T00:00 | 21157 | 47 | -55.2 | ||||
| 2001-06-01T00:00 | 21159 | 47 | -55.2 | ||||
| 2001-06-01T00:00 | 21172 | 47 | -55.2 | ||||
| 2001-06-01T00:00 | 21186 | 47 | -55.4 | ||||
| 2001-06-01T00:00 | 21194 | 47 | -55.3 | ||||
| 2001-06-01T00:00 | 21228 | 46 | -55.3 | ||||
| 2001-06-01T00:00 | 21240 | 46 | -55.3 | ||||
| 2001-06-01T00:00 | 21245 | 46 | -55.3 | ||||
| 2001-06-01T00:00 | 21268 | 46 | -55.2 | 330 | 3 | ||
| 2001-06-01T00:00 | 21273 | 46 | -55.2 | ||||
| 2001-06-01T00:00 | 21284 | 46 | -55.2 | ||||
| 2001-06-01T00:00 | 21289 | 46 | -55.2 | ||||
| 2001-06-01T00:00 | 21313 | 46 | -55.0 | ||||
| 2001-06-01T00:00 | 21321 | 46 | -55.2 | ||||
| 2001-06-01T00:00 | 21326 | 46 | -55.1 | ||||
| 2001-06-01T00:00 | 21353 | 45 | -55.0 | ||||
| 2001-06-01T00:00 | 21368 | 45 | -55.0 | ||||
| 2001-06-01T00:00 | 21376 | 45 | -55.0 | ||||
| 2001-06-01T00:00 | 21410 | 45 | -54.8 | ||||
| 2001-06-01T00:00 | 21421 | 45 | -54.9 | ||||
| 2001-06-01T00:00 | 21426 | 45 | -54.9 | ||||
| 2001-06-01T00:00 | 21448 | 45 | -54.8 | ||||
| 2001-06-01T00:00 | 21460 | 45 | -54.8 | ||||
| 2001-06-01T00:00 | 21471 | 45 | -54.8 | ||||
| 2001-06-01T00:00 | 21490 | 45 | -54.7 | ||||
| 2001-06-01T00:00 | 21496 | 44 | -54.7 | ||||
| 2001-06-01T00:00 | 21500 | 44 | -54.7 | ||||
| 2001-06-01T00:00 | 21518 | 44 | -54.7 | ||||
| 2001-06-01T00:00 | 21526 | 44 | -54.8 | ||||
| 2001-06-01T00:00 | 21530 | 44 | -54.7 | ||||
| 2001-06-01T00:00 | 21554 | 44 | -54.8 | ||||
| 2001-06-01T00:00 | 21566 | 44 | -54.8 | ||||
| 2001-06-01T00:00 | 21572 | 44 | -54.8 | ||||
| 2001-06-01T00:00 | 21578 | 44 | -54.8 | 347 | 4 | ||
| 2001-06-01T00:00 | 21601 | 44 | -54.8 | ||||
| 2001-06-01T00:00 | 21612 | 44 | -54.8 | ||||
| 2001-06-01T00:00 | 21618 | 44 | -54.8 | ||||
| 2001-06-01T00:00 | 21645 | 43 | -54.8 | ||||
| 2001-06-01T00:00 | 21655 | 43 | -54.8 | ||||
| 2001-06-01T00:00 | 21660 | 43 | -54.7 | ||||
| 2001-06-01T00:00 | 21679 | 43 | -54.6 | ||||
| 2001-06-01T00:00 | 21687 | 43 | -54.7 | ||||
| 2001-06-01T00:00 | 21691 | 43 | -54.7 | ||||
| 2001-06-01T00:00 | 21715 | 43 | -54.5 | ||||
| 2001-06-01T00:00 | 21728 | 43 | -54.6 | ||||
| 2001-06-01T00:00 | 21734 | 43 | -54.3 | ||||
| 2001-06-01T00:00 | 21761 | 43 | -54.0 | ||||
| 2001-06-01T00:00 | 21770 | 43 | -53.9 | ||||
| 2001-06-01T00:00 | 21774 | 43 | -53.9 | ||||
| 2001-06-01T00:00 | 21798 | 42 | -53.8 | ||||
| 2001-06-01T00:00 | 21808 | 42 | -53.9 | ||||
| 2001-06-01T00:00 | 21813 | 42 | -53.9 | ||||
| 2001-06-01T00:00 | 21842 | 42 | -53.9 | ||||
| 2001-06-01T00:00 | 21855 | 42 | -53.9 | ||||
| 2001-06-01T00:00 | 21861 | 42 | -54.0 | ||||
| 2001-06-01T00:00 | 21886 | 42 | -53.9 | ||||
| 2001-06-01T00:00 | 21889 | 42 | -53.9 | ||||
| 2001-06-01T00:00 | 21892 | 42 | -53.8 | ||||
| 2001-06-01T00:00 | 21895 | 42 | -53.7 | ||||
| 2001-06-01T00:00 | 21916 | 42 | -53.6 | ||||
| 2001-06-01T00:00 | 21931 | 42 | -53.6 | ||||
| 2001-06-01T00:00 | 21939 | 42 | -53.2 | ||||
| 2001-06-01T00:00 | 21969 | 41 | -53.2 | ||||
| 2001-06-01T00:00 | 21976 | 41 | -53.3 | ||||
| 2001-06-01T00:00 | 21979 | 41 | -53.3 | ||||
| 2001-06-01T00:00 | 21996 | 41 | -53.4 | ||||
| 2001-06-01T00:00 | 22002 | 41 | -53.5 | ||||
| 2001-06-01T00:00 | 22005 | 41 | -53.6 | ||||
| 2001-06-01T00:00 | 22024 | 41 | -53.7 | ||||
| 2001-06-01T00:00 | 22044 | 41 | -53.7 | ||||
| 2001-06-01T00:00 | 22053 | 41 | -53.8 | ||||
| 2001-06-01T00:00 | 22092 | 41 | -53.4 | ||||
| 2001-06-01T00:00 | 22101 | 40 | -53.4 | ||||
| 2001-06-01T00:00 | 22105 | 40 | -53.4 | ||||
| 2001-06-01T00:00 | 22129 | 40 | -53.4 | ||||
| 2001-06-01T00:00 | 22140 | 40 | -53.6 | ||||
| 2001-06-01T00:00 | 22145 | 40 | -53.6 | ||||
| 2001-06-01T00:00 | 22166 | 40 | -53.6 | ||||
| 2001-06-01T00:00 | 22172 | 40 | -53.8 | ||||
| 2001-06-01T00:00 | 22175 | 40 | -53.8 | ||||
| 2001-06-01T00:00 | 22188 | 40 | -53.5 | ||||
| 2001-06-01T00:00 | 22199 | 40 | -53.5 | ||||
| 2001-06-01T00:00 | 22209 | 40 | -53.5 | ||||
| 2001-06-01T00:00 | 22233 | 40 | -53.4 | ||||
| 2001-06-01T00:00 | 22249 | 40 | -53.4 | ||||
| 2001-06-01T00:00 | 22257 | 40 | -53.4 | ||||
| 2001-06-01T00:00 | 22291 | 39 | -53.3 | ||||
| 2001-06-01T00:00 | 22302 | 39 | -53.3 | ||||
| 2001-06-01T00:00 | 22308 | 39 | -53.2 | ||||
| 2001-06-01T00:00 | 22335 | 39 | -53.0 | ||||
| 2001-06-01T00:00 | 22344 | 39 | -53.1 | ||||
| 2001-06-01T00:00 | 22349 | 39 | -53.0 | ||||
| 2001-06-01T00:00 | 22368 | 39 | -52.8 | ||||
| 2001-06-01T00:00 | 22373 | 39 | -52.8 | ||||
| 2001-06-01T00:00 | 22375 | 39 | -52.8 | ||||
| 2001-06-01T00:00 | 22388 | 39 | -52.8 | ||||
| 2001-06-01T00:00 | 22403 | 39 | -52.6 | ||||
| 2001-06-01T00:00 | 22411 | 39 | -52.5 | ||||
| 2001-06-01T00:00 | 22448 | 38 | -52.4 | ||||
| 2001-06-01T00:00 | 22463 | 38 | -52.4 | ||||
| 2001-06-01T00:00 | 22471 | 38 | -52.4 | ||||
| 2001-06-01T00:00 | 22496 | 38 | -52.5 | ||||
| 2001-06-01T00:00 | 22498 | 38 | -52.7 | ||||
| 2001-06-01T00:00 | 22499 | 38 | -52.7 | ||||
| 2001-06-01T00:00 | 22505 | 38 | -52.8 | ||||
| 2001-06-01T00:00 | 22511 | 38 | -52.8 | ||||
| 2001-06-01T00:00 | 22529 | 38 | -53.0 | ||||
| 2001-06-01T00:00 | 22538 | 38 | -53.0 | ||||
| 2001-06-01T00:00 | 22570 | 38 | -53.0 | ||||
| 2001-06-01T00:00 | 22575 | 38 | -53.0 | ||||
| 2001-06-01T00:00 | 22578 | 38 | -53.1 | ||||
| 2001-06-01T00:00 | 22593 | 37 | -52.9 | ||||
| 2001-06-01T00:00 | 22601 | 37 | -52.8 | ||||
| 2001-06-01T00:00 | 22605 | 37 | -52.7 | ||||
| 2001-06-01T00:00 | 22627 | 37 | -52.8 | ||||
| 2001-06-01T00:00 | 22647 | 37 | -52.8 | ||||
| 2001-06-01T00:00 | 22657 | 37 | -52.9 | ||||
| 2001-06-01T00:00 | 22698 | 37 | -52.9 | ||||
| 2001-06-01T00:00 | 22708 | 37 | -53.0 | ||||
| 2001-06-01T00:00 | 22713 | 37 | -53.1 | ||||
| 2001-06-01T00:00 | 22734 | 37 | -53.1 | ||||
| 2001-06-01T00:00 | 22739 | 37 | -53.0 | ||||
| 2001-06-01T00:00 | 22742 | 37 | -53.0 | ||||
| 2001-06-01T00:00 | 22765 | 37 | -52.8 | ||||
| 2001-06-01T00:00 | 22779 | 36 | -52.7 | ||||
| 2001-06-01T00:00 | 22786 | 36 | -52.6 | ||||
| 2001-06-01T00:00 | 22813 | 36 | -52.3 | ||||
| 2001-06-01T00:00 | 22826 | 36 | -52.4 | ||||
| 2001-06-01T00:00 | 22833 | 36 | -52.3 | ||||
| 2001-06-01T00:00 | 22838 | 36 | -52.3 | ||||
| 2001-06-01T00:00 | 22858 | 36 | -52.2 | ||||
| 2001-06-01T00:00 | 22864 | 36 | -52.3 | ||||
| 2001-06-01T00:00 | 22867 | 36 | -52.3 | ||||
| 2001-06-01T00:00 | 22885 | 36 | -52.4 | ||||
| 2001-06-01T00:00 | 22894 | 36 | -52.3 | ||||
| 2001-06-01T00:00 | 22898 | 36 | -52.3 | ||||
| 2001-06-01T00:00 | 22921 | 36 | -52.1 | ||||
| 2001-06-01T00:00 | 22940 | 36 | -52.2 | ||||
| 2001-06-01T00:00 | 22949 | 35 | -52.2 | ||||
| 2001-06-01T00:00 | 22987 | 35 | -52.2 | ||||
| 2001-06-01T00:00 | 22996 | 35 | -52.3 | ||||
| 2001-06-01T00:00 | 23000 | 35 | -52.4 | ||||
| 2001-06-01T00:00 | 23022 | 35 | -52.0 | ||||
| 2001-06-01T00:00 | 23030 | 35 | -52.1 | ||||
| 2001-06-01T00:00 | 23034 | 35 | -52.1 | ||||
| 2001-06-01T00:00 | 23055 | 35 | -52.2 | ||||
| 2001-06-01T00:00 | 23073 | 35 | -52.4 | ||||
| 2001-06-01T00:00 | 23082 | 35 | -52.4 | ||||
| 2001-06-01T00:00 | 23116 | 35 | -52.4 | ||||
| 2001-06-01T00:00 | 23124 | 35 | -52.5 | ||||
| 2001-06-01T00:00 | 23127 | 35 | -52.4 | ||||
| 2001-06-01T00:00 | 23153 | 34 | -52.5 | ||||
| 2001-06-01T00:00 | 23167 | 34 | -52.6 | ||||
| 2001-06-01T00:00 | 23174 | 34 | -52.6 | ||||
| 2001-06-01T00:00 | 23192 | 34 | -52.6 | ||||
| 2001-06-01T00:00 | 23196 | 34 | -52.7 | ||||
| 2001-06-01T00:00 | 23198 | 34 | -52.7 | ||||
| 2001-06-01T00:00 | 23215 | 34 | -52.5 | ||||
| 2001-06-01T00:00 | 23226 | 34 | -52.5 | ||||
| 2001-06-01T00:00 | 23232 | 34 | -52.5 | ||||
| 2001-06-01T00:00 | 23265 | 34 | -52.4 | ||||
| 2001-06-01T00:00 | 23282 | 34 | -52.6 | ||||
| 2001-06-01T00:00 | 23291 | 34 | -52.6 | ||||
| 2001-06-01T00:00 | 23315 | 34 | -52.6 | ||||
| 2001-06-01T00:00 | 23322 | 33 | -52.7 | ||||
| 2001-06-01T00:00 | 23326 | 33 | -52.7 | ||||
| 2001-06-01T00:00 | 23342 | 33 | -52.2 | ||||
| 2001-06-01T00:00 | 23348 | 33 | -52.2 | ||||
| 2001-06-01T00:00 | 23351 | 33 | -52.2 | ||||
| 2001-06-01T00:00 | 23373 | 33 | -52.0 | ||||
| 2001-06-01T00:00 | 23385 | 33 | -52.2 | ||||
| 2001-06-01T00:00 | 23392 | 33 | -52.1 | ||||
| 2001-06-01T00:00 | 23419 | 33 | -51.9 | ||||
| 2001-06-01T00:00 | 23433 | 33 | -52.0 | ||||
| 2001-06-01T00:00 | 23440 | 33 | -52.0 | ||||
| 2001-06-01T00:00 | 23474 | 33 | -51.8 | ||||
| 2001-06-01T00:00 | 23480 | 33 | -51.8 | ||||
| 2001-06-01T00:00 | 23486 | 33 | -51.9 | ||||
| 2001-06-01T00:00 | 23493 | 33 | -51.9 | ||||
| 2001-06-01T00:00 | 23516 | 32 | -52.0 | ||||
| 2001-06-01T00:00 | 23527 | 32 | -52.1 | ||||
| 2001-06-01T00:00 | 23532 | 32 | -52.2 | ||||
| 2001-06-01T00:00 | 23555 | 32 | -52.1 | ||||
| 2001-06-01T00:00 | 23562 | 32 | -52.1 | ||||
| 2001-06-01T00:00 | 23566 | 32 | -52.1 | ||||
| 2001-06-01T00:00 | 23590 | 32 | -51.9 | ||||
| 2001-06-01T00:00 | 23603 | 32 | -52.0 | ||||
| 2001-06-01T00:00 | 23610 | 32 | -52.0 | ||||
| 2001-06-01T00:00 | 23635 | 32 | -52.0 | ||||
| 2001-06-01T00:00 | 23647 | 32 | -51.9 | ||||
| 2001-06-01T00:00 | 23653 | 32 | -51.9 | ||||
| 2001-06-01T00:00 | 23682 | 32 | -51.8 | ||||
| 2001-06-01T00:00 | 23693 | 32 | -52.0 | ||||
| 2001-06-01T00:00 | 23698 | 32 | -51.8 | ||||
| 2001-06-01T00:00 | 23722 | 31 | -51.7 | ||||
| 2001-06-01T00:00 | 23730 | 31 | -51.8 | ||||
| 2001-06-01T00:00 | 23733 | 31 | -51.9 | ||||
| 2001-06-01T00:00 | 23753 | 31 | -51.8 | ||||
| 2001-06-01T00:00 | 23765 | 31 | -51.8 | ||||
| 2001-06-01T00:00 | 23771 | 31 | -51.9 | ||||
| 2001-06-01T00:00 | 23807 | 31 | -51.8 | ||||
| 2001-06-01T00:00 | 23823 | 31 | -52.0 | ||||
| 2001-06-01T00:00 | 23832 | 31 | -52.0 | ||||
| 2001-06-01T00:00 | 23859 | 31 | -51.9 | ||||
| 2001-06-01T00:00 | 23865 | 31 | -52.1 | ||||
| 2001-06-01T00:00 | 23867 | 31 | -52.2 | ||||
| 2001-06-01T00:00 | 23889 | 31 | -52.2 | ||||
| 2001-06-01T00:00 | 23902 | 31 | -52.3 | ||||
| 2001-06-01T00:00 | 23909 | 31 | -52.4 | ||||
| 2001-06-01T00:00 | 23939 | 30 | -52.3 | ||||
| 2001-06-01T00:00 | 23949 | 30 | -52.4 | ||||
| 2001-06-01T00:00 | 23954 | 30 | -52.4 | ||||
| 2001-06-01T00:00 | 23981 | 30 | -52.5 | ||||
| 2001-06-01T00:00 | 23997 | 30 | -52.5 | ||||
| 2001-06-01T00:00 | 24005 | 30 | -52.5 | ||||
| 2001-06-01T00:00 | 24028 | 30 | -52.3 | ||||
| 2001-06-01T00:00 | 24036 | 30 | -52.0 | ||||
| 2001-06-01T00:00 | 24054 | 30 | -52.1 | ||||
| 2001-06-01T00:00 | 24064 | 30 | -52.2 | ||||
| 2001-06-01T00:00 | 24099 | 30 | -52.0 | ||||
| 2001-06-01T00:00 | 24106 | 30 | -52.1 | ||||
| 2001-06-01T00:00 | 24109 | 30 | -52.1 | ||||
| 2001-06-01T00:00 | 24125 | 30 | -52.1 | ||||
| 2001-06-01T00:00 | 24129 | 30 | -52.1 | ||||
| 2001-06-01T00:00 | 24139 | 30 | -52.2 | ||||
| 2001-06-01T00:00 | 24143 | 30 | -52.3 | ||||
| 2001-06-01T00:00 | 24168 | 29 | -52.3 | ||||
| 2001-06-01T00:00 | 24182 | 29 | -52.5 | ||||
| 2001-06-01T00:00 | 24190 | 29 | -52.5 | ||||
| 2001-06-01T00:00 | 24217 | 29 | -52.4 | ||||
| 2001-06-01T00:00 | 24222 | 29 | -52.6 | ||||
| 2001-06-01T00:00 | 24225 | 29 | -52.5 | ||||
| 2001-06-01T00:00 | 24245 | 29 | -52.5 | ||||
| 2001-06-01T00:00 | 24269 | 29 | -52.6 | ||||
| 2001-06-01T00:00 | 24282 | 29 | -52.6 | ||||
| 2001-06-01T00:00 | 24334 | 29 | -52.5 | ||||
| 2001-06-01T00:00 | 24349 | 29 | -52.4 | ||||
| 2001-06-01T00:00 | 24356 | 29 | -52.4 | ||||
| 2001-06-01T00:00 | 24371 | 28 | -52.3 | ||||
| 2001-06-01T00:00 | 24374 | 28 | -52.5 | ||||
| 2001-06-01T00:00 | 24395 | 28 | -52.7 | ||||
| 2001-06-01T00:00 | 24406 | 28 | -52.6 | ||||
| 2001-06-01T00:00 | 24445 | 28 | -52.5 | ||||
| 2001-06-01T00:00 | 24452 | 28 | -52.5 | ||||
| 2001-06-01T00:00 | 24456 | 28 | -52.5 | ||||
| 2001-06-01T00:00 | 24473 | 28 | -52.3 | ||||
| 2001-06-01T00:00 | 24478 | 28 | -52.2 | ||||
| 2001-06-01T00:00 | 24501 | 28 | -52.3 | ||||
| 2001-06-01T00:00 | 24512 | 28 | -52.3 | ||||
| 2001-06-01T00:00 | 24555 | 28 | -52.2 | ||||
| 2001-06-01T00:00 | 24565 | 28 | -52.1 | ||||
| 2001-06-01T00:00 | 24569 | 28 | -52.1 | ||||
| 2001-06-01T00:00 | 24585 | 28 | -51.8 | ||||
| 2001-06-01T00:00 | 24589 | 28 | -52.0 | ||||
| 2001-06-01T00:00 | 24592 | 28 | -51.8 | ||||
| 2001-06-01T00:00 | 24613 | 27 | -51.8 | ||||
| 2001-06-01T00:00 | 24628 | 27 | -51.9 | ||||
| 2001-06-01T00:00 | 24636 | 27 | -52.0 | ||||
| 2001-06-01T00:00 | 24662 | 27 | -51.8 | ||||
| 2001-06-01T00:00 | 24665 | 27 | -51.3 | ||||
| 2001-06-01T00:00 | 24666 | 27 | -51.2 | ||||
| 2001-06-01T00:00 | 24682 | 27 | -51.0 | ||||
| 2001-06-01T00:00 | 24696 | 27 | -50.9 | ||||
| 2001-06-01T00:00 | 24703 | 27 | -50.7 | ||||
| 2001-06-01T00:00 | 24725 | 27 | -50.6 | ||||
| 2001-06-01T00:00 | 24727 | 27 | -50.6 | ||||
| 2001-06-01T00:00 | 24759 | 27 | -50.5 | ||||
| 2001-06-01T00:00 | 24789 | 27 | -50.6 | ||||
| 2001-06-01T00:00 | 24803 | 27 | -50.7 | ||||
| 2001-06-01T00:00 | 24834 | 27 | -50.7 | ||||
| 2001-06-01T00:00 | 24854 | 26 | -50.7 | ||||
| 2001-06-01T00:00 | 24860 | 26 | -50.8 | ||||
| 2001-06-01T00:00 | 24862 | 26 | -50.8 | ||||
| 2001-06-01T00:00 | 24876 | 26 | -50.5 | ||||
| 2001-06-01T00:00 | 24884 | 26 | -50.6 | ||||
| 2001-06-01T00:00 | 24888 | 26 | -50.6 | ||||
| 2001-06-01T00:00 | 24910 | 26 | -50.6 | ||||
| 2001-06-01T00:00 | 24920 | 26 | -50.6 | ||||
| 2001-06-01T00:00 | 24925 | 26 | -50.7 | ||||
| 2001-06-01T00:00 | 24956 | 26 | -50.6 | ||||
| 2001-06-01T00:00 | 24976 | 26 | -50.6 | ||||
| 2001-06-01T00:00 | 24987 | 26 | -50.5 | ||||
| 2001-06-01T00:00 | 25021 | 26 | -50.4 | ||||
| 2001-06-01T00:00 | 25024 | 26 | -50.6 | ||||
| 2001-06-01T00:00 | 25025 | 26 | -50.6 | ||||
| 2001-06-01T00:00 | 25041 | 26 | -50.3 | ||||
| 2001-06-01T00:00 | 25055 | 26 | -50.3 | ||||
| 2001-06-01T00:00 | 25061 | 26 | -50.2 | ||||
| 2001-06-01T00:00 | 25092 | 25 | -50.1 | ||||
| 2001-06-01T00:00 | 25103 | 25 | -50.2 | ||||
| 2001-06-01T00:00 | 25109 | 25 | -50.2 | ||||
| 2001-06-01T00:00 | 25133 | 25 | -50.2 | ||||
| 2001-06-01T00:00 | 25147 | 25 | -50.3 | ||||
| 2001-06-01T00:00 | 25154 | 25 | -50.3 | ||||
| 2001-06-01T00:00 | 25170 | 25 | -50.3 | ||||
| 2001-06-01T00:00 | 25181 | 25 | -50.2 | ||||
| 2001-06-01T00:00 | 25187 | 25 | -50.4 | ||||
| 2001-06-01T00:00 | 25191 | 25 | -50.4 | ||||
| 2001-06-01T00:00 | 25203 | 25 | -50.3 | ||||
| 2001-06-01T00:00 | 25208 | 25 | -50.2 | ||||
| 2001-06-01T00:00 | 25210 | 25 | -50.2 | ||||
| 2001-06-01T00:00 | 25241 | 25 | -49.9 | ||||
| 2001-06-01T00:00 | 25263 | 25 | -50.0 | ||||
| 2001-06-01T00:00 | 25275 | 25 | -49.9 | ||||
| 2001-06-01T00:00 | 25312 | 25 | -49.9 | ||||
| 2001-06-01T00:00 | 25328 | 25 | -50.0 | ||||
| 2001-06-01T00:00 | 25335 | 25 | -50.0 | ||||
| 2001-06-01T00:00 | 25360 | 24 | -49.9 | ||||
| 2001-06-01T00:00 | 25363 | 24 | -49.9 | ||||
| 2001-06-01T00:00 | 25364 | 24 | -50.0 | ||||
| 2001-06-01T00:00 | 25382 | 24 | -49.8 | ||||
| 2001-06-01T00:00 | 25396 | 24 | -49.8 | ||||
| 2001-06-01T00:00 | 25403 | 24 | -49.8 | ||||
| 2001-06-01T00:00 | 25435 | 24 | -49.7 | ||||
| 2001-06-01T00:00 | 25447 | 24 | -49.8 | ||||
| 2001-06-01T00:00 | 25454 | 24 | -49.8 | ||||
| 2001-06-01T00:00 | 25477 | 24 | -49.6 | ||||
| 2001-06-01T00:00 | 25488 | 24 | -49.8 | ||||
| 2001-06-01T00:00 | 25493 | 24 | -49.7 | ||||
| 2001-06-01T00:00 | 25509 | 24 | -49.6 | ||||
| 2001-06-01T00:00 | 25514 | 24 | -49.6 | ||||
| 2001-06-01T00:00 | 25521 | 24 | -49.5 | ||||
| 2001-06-01T00:00 | 25525 | 24 | -49.6 | ||||
| 2001-06-01T00:00 | 25557 | 24 | -49.5 | ||||
| 2001-06-01T00:00 | 25577 | 24 | -49.6 | ||||
| 2001-06-01T00:00 | 25586 | 24 | -49.4 | ||||
| 2001-06-01T00:00 | 25616 | 24 | -49.2 | ||||
| 2001-06-01T00:00 | 25626 | 23 | -49.4 | ||||
| 2001-06-01T00:00 | 25631 | 23 | -49.4 | ||||
| 2001-06-01T00:00 | 25650 | 23 | -49.3 | ||||
| 2001-06-01T00:00 | 25655 | 23 | -49.3 | ||||
| 2001-06-01T00:00 | 25657 | 23 | -49.2 | ||||
| 2001-06-01T00:00 | 25677 | 23 | -49.3 | ||||
| 2001-06-01T00:00 | 25692 | 23 | -49.4 | ||||
| 2001-06-01T00:00 | 25699 | 23 | -49.3 | ||||
| 2001-06-01T00:00 | 25729 | 23 | -49.3 | ||||
| 2001-06-01T00:00 | 25736 | 23 | -49.3 | ||||
| 2001-06-01T00:00 | 25739 | 23 | -49.3 | ||||
| 2001-06-01T00:00 | 25757 | 23 | -49.3 | ||||
| 2001-06-01T00:00 | 25768 | 23 | -49.4 | ||||
| 2001-06-01T00:00 | 25774 | 23 | -49.4 | ||||
| 2001-06-01T00:00 | 25798 | 23 | -49.3 | ||||
| 2001-06-01T00:00 | 25806 | 23 | -49.3 | ||||
| 2001-06-01T00:00 | 25810 | 23 | -49.3 | ||||
| 2001-06-01T00:00 | 25830 | 23 | -49.2 | ||||
| 2001-06-01T00:00 | 25836 | 23 | -49.2 | ||||
| 2001-06-01T00:00 | 25854 | 23 | -49.1 | ||||
| 2001-06-01T00:00 | 25863 | 23 | -49.1 | ||||
| 2001-06-01T00:00 | 25896 | 23 | -49.0 | ||||
| 2001-06-01T00:00 | 25908 | 22 | -49.0 | ||||
| 2001-06-01T00:00 | 25914 | 22 | -49.0 | ||||
| 2001-06-01T00:00 | 25940 | 22 | -48.9 | ||||
| 2001-06-01T00:00 | 25948 | 22 | -48.7 | ||||
| 2001-06-01T00:00 | 25952 | 22 | -48.6 | ||||
| 2001-06-01T00:00 | 25975 | 22 | -48.5 | ||||
| 2001-06-01T00:00 | 25990 | 22 | -48.4 | ||||
| 2001-06-01T00:00 | 25998 | 22 | -48.4 | ||||
| 2001-06-01T00:00 | 26026 | 22 | -48.4 | ||||
| 2001-06-01T00:00 | 26032 | 22 | -48.3 | ||||
| 2001-06-01T00:00 | 26035 | 22 | -48.4 | ||||
| 2001-06-01T00:00 | 26056 | 22 | -48.3 | ||||
| 2001-06-01T00:00 | 26072 | 22 | -48.4 | ||||
| 2001-06-01T00:00 | 26079 | 22 | -48.5 | ||||
| 2001-06-01T00:00 | 26112 | 22 | -48.4 | ||||
| 2001-06-01T00:00 | 26129 | 22 | -48.5 | ||||
| 2001-06-01T00:00 | 26138 | 22 | -48.5 | ||||
| 2001-06-01T00:00 | 26170 | 22 | -48.5 | ||||
| 2001-06-01T00:00 | 26176 | 22 | -48.6 | ||||
| 2001-06-01T00:00 | 26179 | 22 | -48.6 | ||||
| 2001-06-01T00:00 | 26193 | 22 | -48.4 | ||||
| 2001-06-01T00:00 | 26201 | 22 | -48.3 | ||||
| 2001-06-01T00:00 | 26205 | 22 | -48.4 | ||||
| 2001-06-01T00:00 | 26222 | 21 | -48.2 | ||||
| 2001-06-01T00:00 | 26235 | 21 | -48.3 | ||||
| 2001-06-01T00:00 | 26241 | 21 | -48.3 | ||||
| 2001-06-01T00:00 | 26273 | 21 | -48.4 | ||||
| 2001-06-01T00:00 | 26287 | 21 | -48.6 | ||||
| 2001-06-01T00:00 | 26295 | 21 | -48.6 | ||||
| 2001-06-01T00:00 | 26316 | 21 | -48.6 | ||||
| 2001-06-01T00:00 | 26324 | 21 | -48.2 | ||||
| 2001-06-01T00:00 | 26328 | 21 | -48.1 | ||||
| 2001-06-01T00:00 | 26353 | 21 | -47.4 | ||||
| 2001-06-01T00:00 | 26367 | 21 | -47.3 | ||||
| 2001-06-01T00:00 | 26374 | 21 | -47.2 | ||||
| 2001-06-01T00:00 | 26398 | 21 | -47.1 | ||||
| 2001-06-01T00:00 | 26409 | 21 | -47.3 | ||||
| 2001-06-01T00:00 | 26415 | 21 | -47.2 | ||||
| 2001-06-01T00:00 | 26438 | 21 | -47.1 | ||||
| 2001-06-01T00:00 | 26452 | 21 | -47.2 | ||||
| 2001-06-01T00:00 | 26459 | 21 | -47.1 | ||||
| 2001-06-01T00:00 | 26484 | 21 | -47.1 | ||||
| 2001-06-01T00:00 | 26493 | 21 | -47.1 | ||||
| 2001-06-01T00:00 | 26498 | 21 | -47.1 | ||||
| 2001-06-01T00:00 | 26523 | 20 | -47.1 | ||||
| 2001-06-01T00:00 | 26529 | 20 | -47.1 | ||||
| 2001-06-01T00:00 | 26534 | 20 | -47.2 | ||||
| 2001-06-01T00:00 | 26540 | 20 | -47.1 | ||||
| 2001-06-01T00:00 | 26560 | 20 | -47.1 | ||||
| 2001-06-01T00:00 | 26565 | 20 | -47.2 | ||||
| 2001-06-01T00:00 | 26568 | 20 | -47.2 | ||||
| 2001-06-01T00:00 | 26595 | 20 | -47.2 | ||||
| 2001-06-01T00:00 | 26614 | 20 | -47.3 | ||||
| 2001-06-01T00:00 | 26623 | 20 | -47.3 | ||||
| 2001-06-01T00:00 | 26652 | 20 | -47.4 | ||||
| 2001-06-01T00:00 | 26662 | 20 | -47.4 | ||||
| 2001-06-01T00:00 | 26668 | 20 | -47.4 | ||||
| 2001-06-01T00:00 | 26684 | 20 | -47.4 | ||||
| 2001-06-01T00:00 | 26692 | 20 | -47.4 | ||||
| 2001-06-01T00:00 | 26706 | 20 | -47.5 | ||||
| 2001-06-01T00:00 | 26713 | 20 | -47.3 | ||||
| 2001-06-01T00:00 | 26747 | 20 | -47.3 | ||||
| 2001-06-01T00:00 | 26759 | 20 | -47.5 | ||||
| 2001-06-01T00:00 | 26765 | 20 | -47.5 | ||||
| 2001-06-01T00:00 | 26785 | 20 | -47.5 | ||||
| 2001-06-01T00:00 | 26793 | 20 | -47.7 | ||||
| 2001-06-01T00:00 | 26797 | 20 | -47.5 | ||||
| 2001-06-01T00:00 | 26815 | 20 | -47.5 | ||||
| 2001-06-01T00:00 | 26828 | 20 | -47.6 | ||||
| 2001-06-01T00:00 | 26835 | 20 | -47.7 | ||||
| 2001-06-01T00:00 | 26860 | 19 | -47.6 | ||||
| 2001-06-01T00:00 | 26870 | 19 | -47.7 | ||||
| 2001-06-01T00:00 | 26875 | 19 | -47.7 | ||||
| 2001-06-01T00:00 | 26904 | 19 | -47.7 | ||||
| 2001-06-01T00:00 | 26918 | 19 | -47.8 | ||||
| 2001-06-01T00:00 | 26925 | 19 | -47.8 | ||||
| 2001-06-01T00:00 | 26954 | 19 | -47.6 | ||||
| 2001-06-01T00:00 | 26966 | 19 | -47.5 | ||||
| 2001-06-01T00:00 | 26973 | 19 | -47.5 | ||||
| 2001-06-01T00:00 | 27007 | 19 | -47.4 | ||||
| 2001-06-01T00:00 | 27022 | 19 | -47.5 | ||||
| 2001-06-01T00:00 | 27029 | 19 | -47.5 | ||||
| 2001-06-01T00:00 | 27055 | 19 | -47.5 | ||||
| 2001-06-01T00:00 | 27066 | 19 | -47.5 | ||||
| 2001-06-01T00:00 | 27072 | 19 | -47.5 | ||||
| 2001-06-01T00:00 | 27091 | 19 | -47.4 | ||||
| 2001-06-01T00:00 | 27098 | 19 | -47.4 | ||||
| 2001-06-01T00:00 | 27102 | 19 | -47.4 | ||||
| 2001-06-01T00:00 | 27130 | 19 | -47.5 | ||||
| 2001-06-01T00:00 | 27147 | 19 | -47.4 | ||||
| 2001-06-01T00:00 | 27155 | 19 | -47.4 | ||||
| 2001-06-01T00:00 | 27175 | 19 | -47.3 | ||||
| 2001-06-01T00:00 | 27179 | 19 | -47.3 | ||||
| 2001-06-01T00:00 | 27181 | 19 | -47.3 | ||||
| 2001-06-01T00:00 | 27202 | 18 | -47.0 | ||||
| 2001-06-01T00:00 | 27219 | 18 | -47.0 | ||||
| 2001-06-01T00:00 | 27228 | 18 | -47.1 | ||||
| 2001-06-01T00:00 | 27235 | 18 | -47.0 | ||||
| 2001-06-01T00:00 | 27259 | 18 | -46.8 | ||||
| 2001-06-01T00:00 | 27269 | 18 | -46.7 | ||||
| 2001-06-01T00:00 | 27274 | 18 | -46.7 |
Only the first 2000 rows were shown. To view the complete dataset, download it as tab-delimited text. You can still view the full matrix in your browser, but be aware that this may crash the browser due to the huge size.
